Wetterdaten: Montag, 19.11.2018
Datum Zeit Temp. Aussen Temp. o. S. +5cm Feuchte Auss Luftdruck Regen Sonnenschein Regendauer Solar Windben Empfang
19.11.2018 00:00 1,3 C 0,6 C 0,0 C 86 % 1023,2 hPa 0,0 l/m 0 min 0 min 0 W/m 6,4 km/h (2 Bft) 97,87 %
19.11.2018 00:02 1,3 C 0,6 C 0,0 C 85 % 1023,2 hPa 0,0 l/m 0 min 0 min 0 W/m 9,7 km/h (2 Bft) 95,24 %
19.11.2018 00:04 1,3 C 0,6 C 0,0 C 85 % 1023,1 hPa 0,0 l/m 0 min 0 min 0 W/m 9,7 km/h (2 Bft) 97,87 %
19.11.2018 00:08 1,3 C 0,6 C 0,0 C 86 % 1023,1 hPa 0,0 l/m 0 min 0 min 0 W/m 12,9 km/h (3 Bft) 96,81 %
19.11.2018 00:10 1,3 C 0,6 C 0,0 C 86 % 1023,0 hPa 0,0 l/m 0 min 0 min 0 W/m 9,7 km/h (2 Bft) 97,87 %
19.11.2018 00:12 1,3 C 0,6 C 0,0 C 86 % 1023,1 hPa 0,0 l/m 0 min 0 min 0 W/m 9,7 km/h (2 Bft) 97,87 %
19.11.2018 00:14 1,3 C 0,6 C 0,0 C 86 % 1023,0 hPa 0,0 l/m 0 min 0 min 0 W/m 6,4 km/h (2 Bft) 95,65 %
19.11.2018 00:16 1,3 C 0,6 C 0,0 C 86 % 1023,1 hPa 0,0 l/m 0 min 0 min 0 W/m 6,4 km/h (2 Bft) 95,74 %
19.11.2018 00:18 1,3 C 0,6 C 0,0 C 86 % 1023,1 hPa 0,0 l/m 0 min 0 min 0 W/m 6,4 km/h (2 Bft) 97,87 %
19.11.2018 00:20 1,3 C 0,6 C 0,0 C 86 % 1023,1 hPa 0,0 l/m 0 min 0 min 0 W/m 9,7 km/h (2 Bft) 97,87 %
19.11.2018 00:22 1,3 C 0,6 C 0,0 C 86 % 1023,1 hPa 0,0 l/m 0 min 0 min 0 W/m 6,4 km/h (2 Bft) 97,87 %
19.11.2018 00:24 1,2 C 0,6 C 0,0 C 86 % 1023,2 hPa 0,0 l/m 0 min 0 min 0 W/m 6,4 km/h (2 Bft) 97,83 %
19.11.2018 00:26 1,2 C 0,6 C 0,0 C 86 % 1023,1 hPa 0,0 l/m 0 min 0 min 0 W/m 6,4 km/h (2 Bft) 97,87 %
19.11.2018 00:28 1,2 C 0,0 C 0,0 C 86 % 1023,1 hPa 0,0 l/m 0 min 0 min 0 W/m 6,4 km/h (2 Bft) 97,87 %
19.11.2018 00:30 1,2 C 0,0 C 0,0 C 86 % 1023,0 hPa 0,0 l/m 0 min 0 min 0 W/m 6,4 km/h (2 Bft) 97,87 %
19.11.2018 00:32 1,2 C 0,0 C 0,0 C 86 % 1023,0 hPa 0,0 l/m 0 min 0 min 0 W/m 6,4 km/h (2 Bft) 97,87 %
19.11.2018 00:34 1,2 C 0,0 C 0,0 C 87 % 1023,0 hPa 0,0 l/m 0 min 0 min 0 W/m 3,2 km/h (1 Bft) 93,62 %
19.11.2018 00:36 1,2 C 0,0 C 0,0 C 87 % 1023,0 hPa 0,0 l/m 0 min 0 min 0 W/m 6,4 km/h (2 Bft) 97,83 %
19.11.2018 00:38 1,2 C 0,0 C 0,0 C 87 % 1023,0 hPa 0,0 l/m 0 min 0 min 0 W/m 3,2 km/h (1 Bft) 97,87 %
19.11.2018 00:40 1,1 C 0,0 C 0,0 C 87 % 1022,9 hPa 0,0 l/m 0 min 0 min 0 W/m 6,4 km/h (2 Bft) 97,87 %
19.11.2018 00:42 1,1 C 0,0 C -0,6 C 87 % 1023,0 hPa 0,0 l/m 0 min 0 min 0 W/m 6,4 km/h (2 Bft) 97,87 %
19.11.2018 00:44 1,1 C 0,0 C -0,6 C 87 % 1023,0 hPa 0,0 l/m 0 min 0 min 0 W/m 6,4 km/h (2 Bft) 95,74 %
19.11.2018 00:46 1,1 C 0,0 C -0,6 C 87 % 1022,9 hPa 0,0 l/m 0 min 0 min 0 W/m 3,2 km/h (1 Bft) 97,87 %
19.11.2018 00:48 1,1 C 0,0 C -0,6 C 87 % 1023,0 hPa 0,0 l/m 0 min 0 min 0 W/m 6,4 km/h (2 Bft) 97,83 %
19.11.2018 00:50 1,1 C 0,0 C -0,6 C 87 % 1022,8 hPa 0,0 l/m 0 min 0 min 0 W/m 3,2 km/h (1 Bft) 97,87 %
19.11.2018 00:52 1,1 C 0,0 C 0,0 C 87 % 1022,8 hPa 0,0 l/m 0 min 0 min 0 W/m 6,4 km/h (2 Bft) 97,87 %
19.11.2018 00:54 1,1 C 0,0 C -0,6 C 87 % 1022,8 hPa 0,0 l/m 0 min 0 min 0 W/m 3,2 km/h (1 Bft) 97,87 %
19.11.2018 00:56 1,0 C 0,0 C -0,6 C 87 % 1022,7 hPa 0,0 l/m 0 min 0 min 0 W/m 6,4 km/h (2 Bft) 100,00 %
19.11.2018 00:58 1,0 C 0,0 C -0,6 C 87 % 1022,7 hPa 0,0 l/m 0 min 0 min 0 W/m 6,4 km/h (2 Bft) 100,00 %
19.11.2018 01:00 1,0 C 0,0 C -0,6 C 87 % 1022,7 hPa 0,0 l/m 0 min 0 min 0 W/m 3,2 km/h (1 Bft) 97,83 %
19.11.2018 01:02 1,0 C 0,0 C -0,6 C 87 % 1022,7 hPa 0,0 l/m 0 min 0 min 0 W/m 3,2 km/h (1 Bft) 91,49 %
19.11.2018 01:04 0,9 C 0,0 C -0,6 C 87 % 1022,7 hPa 0,0 l/m 0 min 0 min 0 W/m 6,4 km/h (2 Bft) 95,74 %
19.11.2018 01:06 0,9 C 0,0 C -0,6 C 87 % 1022,7 hPa 0,0 l/m 0 min 0 min 0 W/m 6,4 km/h (2 Bft) 100,00 %
19.11.2018 01:08 0,9 C 0,0 C -0,6 C 87 % 1022,7 hPa 0,0 l/m 0 min 0 min 0 W/m 6,4 km/h (2 Bft) 97,87 %
19.11.2018 01:10 0,9 C 0,0 C -0,6 C 88 % 1022,7 hPa 0,0 l/m 0 min 0 min 0 W/m 3,2 km/h (1 Bft) 95,74 %
19.11.2018 01:12 0,9 C 0,6 C -0,6 C 88 % 1022,6 hPa 0,0 l/m 0 min 0 min 0 W/m 3,2 km/h (1 Bft) 89,13 %
19.11.2018 01:14 0,9 C 0,0 C -0,6 C 88 % 1022,6 hPa 0,0 l/m 0 min 0 min 0 W/m 6,4 km/h (2 Bft) 97,87 %
19.11.2018 01:16 0,9 C 0,0 C -0,6 C 88 % 1022,6 hPa 0,0 l/m 0 min 0 min 0 W/m 6,4 km/h (2 Bft) 93,62 %
19.11.2018 01:18 0,9 C 0,0 C -0,6 C 88 % 1022,5 hPa 0,0 l/m 0 min 0 min 0 W/m 3,2 km/h (1 Bft) 95,74 %
19.11.2018 01:20 0,9 C 0,0 C -0,6 C 88 % 1022,5 hPa 0,0 l/m 0 min 0 min 0 W/m 6,4 km/h (2 Bft) 97,87 %
19.11.2018 01:22 0,9 C 0,0 C -0,6 C 88 % 1022,5 hPa 0,0 l/m 0 min 0 min 0 W/m 3,2 km/h (1 Bft) 93,48 %
19.11.2018 01:24 0,9 C -0,6 C -0,6 C 88 % 1022,5 hPa 0,0 l/m 0 min 0 min 0 W/m 3,2 km/h (1 Bft) 93,62 %
19.11.2018 01:26 0,9 C -0,6 C -0,6 C 88 % 1022,5 hPa 0,0 l/m 0 min 0 min 0 W/m 6,4 km/h (2 Bft) 95,74 %
19.11.2018 01:28 0,9 C 0,0 C -0,6 C 88 % 1022,5 hPa 0,0 l/m 0 min 0 min 0 W/m 0,0 km/h (0 Bft) 95,74 %
19.11.2018 01:30 0,9 C 0,0 C -0,6 C 88 % 1022,4 hPa 0,0 l/m 0 min 0 min 0 W/m 3,2 km/h (1 Bft) 95,74 %
19.11.2018 01:32 0,8 C 0,0 C -0,6 C 89 % 1022,4 hPa 0,0 l/m 0 min 0 min 0 W/m 3,2 km/h (1 Bft) 95,74 %
19.11.2018 01:34 0,8 C 0,0 C -0,6 C 89 % 1022,4 hPa 0,0 l/m 0 min 0 min 0 W/m 3,2 km/h (1 Bft) 93,48 %
19.11.2018 01:36 0,8 C 0,0 C -0,6 C 89 % 1022,4 hPa 0,0 l/m 0 min 0 min 0 W/m 3,2 km/h (1 Bft) 95,74 %
19.11.2018 01:38 0,8 C 0,0 C -0,6 C 89 % 1022,2 hPa 0,0 l/m 0 min 0 min 0 W/m 6,4 km/h (2 Bft) 95,74 %
19.11.2018 01:40 0,8 C 0,0 C -0,6 C 89 % 1022,3 hPa 0,0 l/m 0 min 0 min 0 W/m 6,4 km/h (2 Bft) 95,74 %
19.11.2018 01:42 0,8 C 0,0 C -0,6 C 89 % 1022,3 hPa 0,0 l/m 0 min 0 min 0 W/m 6,4 km/h (2 Bft) 95,74 %
19.11.2018 01:44 0,8 C 0,0 C -0,6 C 89 % 1022,3 hPa 0,0 l/m 0 min 0 min 0 W/m 6,4 km/h (2 Bft) 93,62 %
19.11.2018 01:46 0,8 C 0,6 C -0,6 C 89 % 1022,3 hPa 0,0 l/m 0 min 0 min 0 W/m 6,4 km/h (2 Bft) 95,65 %
19.11.2018 01:48 0,8 C 0,6 C -0,6 C 89 % 1022,2 hPa 0,0 l/m 0 min 0 min 0 W/m 12,9 km/h (3 Bft) 95,74 %
19.11.2018 01:50 0,8 C 0,6 C -0,6 C 89 % 1022,2 hPa 0,0 l/m 0 min 0 min 0 W/m 3,2 km/h (1 Bft) 93,62 %
19.11.2018 01:52 0,9 C 0,6 C 0,0 C 90 % 1022,1 hPa 0,0 l/m 0 min 0 min 0 W/m 6,4 km/h (2 Bft) 97,87 %
19.11.2018 01:54 0,9 C 0,6 C 0,0 C 90 % 1022,1 hPa 0,0 l/m 0 min 0 min 0 W/m 6,4 km/h (2 Bft) 97,87 %
19.11.2018 01:56 0,9 C 0,6 C 0,0 C 90 % 1022,0 hPa 0,0 l/m 0 min 0 min 0 W/m 6,4 km/h (2 Bft) 100,00 %
19.11.2018 01:58 0,9 C 0,6 C 0,0 C 90 % 1022,0 hPa 0,0 l/m 0 min 0 min 0 W/m 9,7 km/h (2 Bft) 100,00 %
19.11.2018 02:00 0,9 C 0,6 C 0,0 C 90 % 1021,9 hPa 0,0 l/m 0 min 0 min 0 W/m 3,2 km/h (1 Bft) 100,00 %
19.11.2018 02:02 0,9 C 0,6 C 0,0 C 90 % 1021,9 hPa 0,0 l/m 0 min 0 min 0 W/m 3,2 km/h (1 Bft) 97,87 %
19.11.2018 02:04 0,9 C 0,6 C -0,6 C 91 % 1021,8 hPa 0,0 l/m 0 min 0 min 0 W/m 3,2 km/h (1 Bft) 100,00 %
19.11.2018 02:06 1,0 C 0,6 C -0,6 C 91 % 1021,9 hPa 0,0 l/m 0 min 0 min 0 W/m 6,4 km/h (2 Bft) 100,00 %
19.11.2018 02:08 1,0 C 0,6 C -0,6 C 91 % 1021,9 hPa 0,0 l/m 0 min 0 min 0 W/m 6,4 km/h (2 Bft) 100,00 %
19.11.2018 02:10 1,0 C 0,6 C -0,6 C 91 % 1021,8 hPa 0,0 l/m 0 min 0 min 0 W/m 3,2 km/h (1 Bft) 95,65 %
19.11.2018 02:12 1,0 C 0,6 C -0,6 C 91 % 1021,8 hPa 0,0 l/m 0 min 0 min 0 W/m 3,2 km/h (1 Bft) 97,87 %
19.11.2018 02:14 1,0 C 0,6 C 0,0 C 91 % 1021,8 hPa 0,0 l/m 0 min 0 min 0 W/m 9,7 km/h (2 Bft) 100,00 %
19.11.2018 02:16 1,0 C 0,6 C 0,0 C 91 % 1021,8 hPa 0,0 l/m 0 min 0 min 0 W/m 6,4 km/h (2 Bft) 100,00 %
19.11.2018 02:18 1,1 C 0,6 C 0,0 C 91 % 1021,7 hPa 0,0 l/m 0 min 0 min 0 W/m 6,4 km/h (2 Bft) 100,00 %
19.11.2018 02:20 1,1 C 0,6 C 0,0 C 91 % 1021,7 hPa 0,0 l/m 0 min 0 min 0 W/m 9,7 km/h (2 Bft) 100,00 %
19.11.2018 02:22 1,1 C 0,6 C 0,0 C 91 % 1021,7 hPa 0,0 l/m 0 min 0 min 0 W/m 6,4 km/h (2 Bft) 100,00 %
19.11.2018 02:24 1,1 C 0,6 C 0,0 C 91 % 1021,7 hPa 0,0 l/m 0 min 0 min 0 W/m 6,4 km/h (2 Bft) 100,00 %
19.11.2018 02:26 1,1 C 0,6 C 0,0 C 91 % 1021,6 hPa 0,0 l/m 0 min 0 min 0 W/m 3,2 km/h (1 Bft) 100,00 %
19.11.2018 02:28 1,1 C 0,6 C 0,0 C 91 % 1021,6 hPa 0,0 l/m 0 min 0 min 0 W/m 3,2 km/h (1 Bft) 100,00 %
19.11.2018 02:30 1,1 C 0,6 C 0,0 C 91 % 1021,6 hPa 0,0 l/m 0 min 0 min 0 W/m 6,4 km/h (2 Bft) 100,00 %
19.11.2018 02:32 1,2 C 0,6 C 0,0 C 91 % 1021,5 hPa 0,0 l/m 0 min 0 min 0 W/m 3,2 km/h (1 Bft) 100,00 %
19.11.2018 02:34 1,2 C 0,6 C 0,0 C 92 % 1021,5 hPa 0,0 l/m 0 min 0 min 0 W/m 9,7 km/h (2 Bft) 100,00 %
19.11.2018 02:36 1,2 C 0,6 C 0,0 C 92 % 1021,5 hPa 0,0 l/m 0 min 0 min 0 W/m 6,4 km/h (2 Bft) 100,00 %
19.11.2018 02:38 1,2 C 1,1 C 0,0 C 92 % 1021,5 hPa 0,0 l/m 0 min 0 min 0 W/m 6,4 km/h (2 Bft) 100,00 %
19.11.2018 02:40 1,2 C 1,1 C 0,0 C 92 % 1021,5 hPa 0,0 l/m 0 min 0 min 0 W/m 6,4 km/h (2 Bft) 100,00 %
19.11.2018 02:42 1,2 C 1,1 C 0,0 C 92 % 1021,5 hPa 0,0 l/m 0 min 0 min 0 W/m 3,2 km/h (1 Bft) 100,00 %
19.11.2018 02:44 1,3 C 1,1 C 0,0 C 92 % 1021,5 hPa 0,0 l/m 0 min 0 min 0 W/m 9,7 km/h (2 Bft) 100,00 %
19.11.2018 02:46 1,3 C 1,1 C 0,0 C 92 % 1021,5 hPa 0,0 l/m 0 min 0 min 0 W/m 6,4 km/h (2 Bft) 100,00 %
19.11.2018 02:48 1,3 C 1,1 C 0,0 C 92 % 1021,5 hPa 0,0 l/m 0 min 0 min 0 W/m 6,4 km/h (2 Bft) 100,00 %
19.11.2018 02:50 1,4 C 1,1 C 0,0 C 92 % 1021,5 hPa 0,0 l/m 0 min 0 min 0 W/m 6,4 km/h (2 Bft) 100,00 %
19.11.2018 02:52 1,4 C 1,1 C 0,0 C 92 % 1021,5 hPa 0,0 l/m 0 min 0 min 0 W/m 6,4 km/h (2 Bft) 100,00 %
19.11.2018 02:54 1,4 C 1,1 C 0,0 C 92 % 1021,5 hPa 0,0 l/m 0 min 0 min 0 W/m 9,7 km/h (2 Bft) 100,00 %
19.11.2018 02:56 1,4 C 1,1 C 0,0 C 92 % 1021,4 hPa 0,0 l/m 0 min 0 min 0 W/m 6,4 km/h (2 Bft) 100,00 %
19.11.2018 02:58 1,4 C 1,1 C 0,0 C 93 % 1021,4 hPa 0,0 l/m 0 min 0 min 0 W/m 9,7 km/h (2 Bft) 100,00 %
19.11.2018 03:00 1,5 C 1,1 C 0,0 C 93 % 1021,4 hPa 0,0 l/m 0 min 0 min 0 W/m 9,7 km/h (2 Bft) 100,00 %
19.11.2018 03:02 1,5 C 1,1 C 0,0 C 93 % 1021,4 hPa 0,0 l/m 0 min 0 min 0 W/m 6,4 km/h (2 Bft) 100,00 %
19.11.2018 03:04 1,6 C 1,1 C 0,6 C 93 % 1021,4 hPa 0,0 l/m 0 min 0 min 0 W/m 6,4 km/h (2 Bft) 100,00 %
19.11.2018 03:06 1,6 C 1,1 C 0,6 C 93 % 1021,4 hPa 0,0 l/m 0 min 0 min 0 W/m 9,7 km/h (2 Bft) 100,00 %
19.11.2018 03:08 1,7 C 1,7 C 0,6 C 93 % 1021,4 hPa 0,0 l/m 0 min 0 min 0 W/m 9,7 km/h (2 Bft) 100,00 %
19.11.2018 03:10 1,7 C 1,7 C 0,6 C 93 % 1021,4 hPa 0,0 l/m 0 min 0 min 0 W/m 6,4 km/h (2 Bft) 97,87 %
19.11.2018 03:12 1,7 C 1,1 C 0,6 C 93 % 1021,4 hPa 0,0 l/m 0 min 0 min 0 W/m 3,2 km/h (1 Bft) 100,00 %
19.11.2018 03:14 1,7 C 1,1 C 0,6 C 93 % 1021,4 hPa 0,0 l/m 0 min 0 min 0 W/m 6,4 km/h (2 Bft) 100,00 %
19.11.2018 03:16 1,8 C 1,1 C 0,6 C 93 % 1021,4 hPa 0,0 l/m 0 min 0 min 0 W/m 6,4 km/h (2 Bft) 100,00 %
19.11.2018 03:18 1,8 C 1,1 C 0,6 C 93 % 1021,4 hPa 0,0 l/m 0 min 0 min 0 W/m 6,4 km/h (2 Bft) 100,00 %
19.11.2018 03:20 1,8 C 1,1 C 0,6 C 93 % 1021,3 hPa 0,0 l/m 0 min 0 min 0 W/m 6,4 km/h (2 Bft) 97,83 %
19.11.2018 03:22 1,8 C 1,1 C 0,6 C 93 % 1021,3 hPa 0,0 l/m 0 min 0 min 0 W/m 6,4 km/h (2 Bft) 100,00 %
19.11.2018 03:24 1,8 C 1,1 C 0,6 C 93 % 1021,3 hPa 0,0 l/m 0 min 0 min 0 W/m 6,4 km/h (2 Bft) 100,00 %
19.11.2018 03:26 1,8 C 1,1 C 0,6 C 93 % 1021,3 hPa 0,0 l/m 0 min 0 min 0 W/m 6,4 km/h (2 Bft) 100,00 %
19.11.2018 03:28 1,8 C 1,1 C 0,6 C 93 % 1021,3 hPa 0,0 l/m 0 min 0 min 0 W/m 3,2 km/h (1 Bft) 97,87 %
19.11.2018 03:30 1,8 C 1,7 C 0,6 C 93 % 1021,2 hPa 0,0 l/m 0 min 0 min 0 W/m 6,4 km/h (2 Bft) 95,74 %
19.11.2018 03:32 1,8 C 1,7 C 0,6 C 94 % 1021,2 hPa 0,0 l/m 0 min 0 min 0 W/m 3,2 km/h (1 Bft) 97,83 %
19.11.2018 03:34 1,8 C 1,7 C 1,1 C 94 % 1021,2 hPa 0,0 l/m 0 min 0 min 0 W/m 6,4 km/h (2 Bft) 97,87 %
19.11.2018 03:36 1,8 C 1,7 C 1,1 C 94 % 1021,1 hPa 0,0 l/m 0 min 0 min 0 W/m 3,2 km/h (1 Bft) 95,74 %
19.11.2018 03:38 1,9 C 1,7 C 1,1 C 94 % 1021,1 hPa 0,0 l/m 0 min 0 min 0 W/m 0,0 km/h (0 Bft) 97,87 %
19.11.2018 03:40 1,9 C 1,7 C 1,1 C 94 % 1021,1 hPa 0,0 l/m 0 min 0 min 0 W/m 0,0 km/h (0 Bft) 97,87 %
19.11.2018 03:42 1,9 C 1,7 C 1,1 C 94 % 1021,0 hPa 0,0 l/m 0 min 0 min 0 W/m 0,0 km/h (0 Bft) 95,65 %
19.11.2018 03:44 1,9 C 1,7 C 1,1 C 93 % 1021,0 hPa 0,0 l/m 0 min 0 min 0 W/m 0,0 km/h (0 Bft) 97,87 %
19.11.2018 03:46 1,9 C 2,2 C 1,1 C 94 % 1021,0 hPa 0,0 l/m 0 min 0 min 0 W/m 0,0 km/h (0 Bft) 95,74 %
19.11.2018 03:48 1,9 C 2,2 C 1,1 C 94 % 1021,0 hPa 0,0 l/m 0 min 0 min 0 W/m 0,0 km/h (0 Bft) 95,74 %
19.11.2018 03:50 1,9 C 2,2 C 1,1 C 94 % 1020,9 hPa 0,0 l/m 0 min 0 min 0 W/m 0,0 km/h (0 Bft) 95,74 %
19.11.2018 03:52 2,0 C 2,2 C 1,1 C 94 % 1020,9 hPa 0,0 l/m 0 min 0 min 0 W/m 0,0 km/h (0 Bft) 95,74 %
19.11.2018 03:54 2,0 C 2,2 C 1,1 C 94 % 1020,8 hPa 0,0 l/m 0 min 0 min 0 W/m 0,0 km/h (0 Bft) 93,48 %
19.11.2018 03:56 2,1 C 2,2 C 1,1 C 94 % 1020,9 hPa 0,0 l/m 0 min 0 min 0 W/m 0,0 km/h (0 Bft) 93,62 %
19.11.2018 03:58 2,1 C 2,2 C 1,1 C 94 % 1020,8 hPa 0,0 l/m 0 min 0 min 0 W/m 0,0 km/h (0 Bft) 91,49 %
19.11.2018 04:00 2,1 C 2,2 C 1,7 C 94 % 1020,8 hPa 0,0 l/m 0 min 0 min 0 W/m 0,0 km/h (0 Bft) 93,62 %
19.11.2018 04:02 2,1 C 2,2 C 1,7 C 94 % 1020,9 hPa 0,0 l/m 0 min 0 min 0 W/m 0,0 km/h (0 Bft) 96,30 %
19.11.2018 04:07 2,2 C 2,2 C 1,7 C 94 % 1020,7 hPa 0,0 l/m 0 min 0 min 0 W/m 0,0 km/h (0 Bft) 100,00 %
19.11.2018 04:08 2,2 C 2,2 C 1,7 C 94 % 1020,7 hPa 0,0 l/m 0 min 0 min 0 W/m 0,0 km/h (0 Bft) 95,65 %
19.11.2018 04:10 2,2 C 2,2 C 1,7 C 94 % 1020,7 hPa 0,0 l/m 0 min 0 min 0 W/m 0,0 km/h (0 Bft) 91,49 %
19.11.2018 04:12 2,2 C 2,2 C 1,7 C 94 % 1020,6 hPa 0,0 l/m 0 min 0 min 0 W/m 0,0 km/h (0 Bft) 95,74 %
19.11.2018 04:14 2,2 C 2,2 C 1,7 C 94 % 1020,7 hPa 0,0 l/m 0 min 0 min 0 W/m 0,0 km/h (0 Bft) 95,74 %
19.11.2018 04:16 2,3 C 2,2 C 1,7 C 94 % 1020,7 hPa 0,0 l/m 0 min 0 min 0 W/m 0,0 km/h (0 Bft) 95,74 %
19.11.2018 04:18 2,3 C 2,2 C 1,7 C 94 % 1020,7 hPa 0,0 l/m 0 min 0 min 0 W/m 0,0 km/h (0 Bft) 93,48 %
19.11.2018 04:20 2,3 C 2,2 C 1,7 C 94 % 1020,6 hPa 0,0 l/m 0 min 0 min 0 W/m 0,0 km/h (0 Bft) 95,74 %
19.11.2018 04:22 2,3 C 2,8 C 1,7 C 94 % 1020,6 hPa 0,0 l/m 0 min 0 min 0 W/m 0,0 km/h (0 Bft) 95,74 %
19.11.2018 04:24 2,4 C 2,8 C 1,7 C 94 % 1020,6 hPa 0,0 l/m 0 min 0 min 0 W/m 3,2 km/h (1 Bft) 95,74 %
19.11.2018 04:26 2,4 C 2,8 C 1,7 C 94 % 1020,5 hPa 0,0 l/m 0 min 0 min 0 W/m 6,4 km/h (2 Bft) 91,49 %
19.11.2018 04:28 2,4 C 2,8 C 1,7 C 94 % 1020,5 hPa 0,0 l/m 0 min 0 min 0 W/m 0,0 km/h (0 Bft) 95,74 %
19.11.2018 04:30 2,4 C 2,8 C 1,7 C 94 % 1020,5 hPa 0,0 l/m 0 min 0 min 0 W/m 3,2 km/h (1 Bft) 95,65 %
19.11.2018 04:32 2,5 C 2,8 C 1,7 C 94 % 1020,5 hPa 0,0 l/m 0 min 0 min 0 W/m 3,2 km/h (1 Bft) 95,74 %
19.11.2018 04:34 2,5 C 2,8 C 1,7 C 94 % 1020,5 hPa 0,0 l/m 0 min 0 min 0 W/m 3,2 km/h (1 Bft) 93,62 %
19.11.2018 04:36 2,5 C 2,8 C 1,7 C 94 % 1020,5 hPa 0,0 l/m 0 min 0 min 0 W/m 0,0 km/h (0 Bft) 100,00 %
19.11.2018 04:38 2,6 C 2,8 C 1,7 C 94 % 1020,5 hPa 0,0 l/m 0 min 0 min 0 W/m 0,0 km/h (0 Bft) 100,00 %
19.11.2018 04:40 2,6 C 2,8 C 1,7 C 95 % 1020,4 hPa 0,0 l/m 0 min 0 min 0 W/m 0,0 km/h (0 Bft) 100,00 %
19.11.2018 04:42 2,6 C 2,8 C 1,7 C 95 % 1020,4 hPa 0,0 l/m 0 min 0 min 0 W/m 3,2 km/h (1 Bft) 100,00 %
19.11.2018 04:44 2,7 C 2,8 C 1,7 C 95 % 1020,4 hPa 0,0 l/m 0 min 0 min 0 W/m 3,2 km/h (1 Bft) 97,87 %
19.11.2018 04:46 2,7 C 2,8 C 2,2 C 94 % 1020,4 hPa 0,0 l/m 0 min 0 min 0 W/m 3,2 km/h (1 Bft) 100,00 %
19.11.2018 04:48 2,7 C 2,8 C 2,2 C 95 % 1020,4 hPa 0,0 l/m 0 min 0 min 0 W/m 3,2 km/h (1 Bft) 100,00 %
19.11.2018 04:50 2,8 C 2,8 C 2,2 C 95 % 1020,3 hPa 0,0 l/m 0 min 0 min 0 W/m 3,2 km/h (1 Bft) 100,00 %
19.11.2018 04:52 2,8 C 2,8 C 2,2 C 95 % 1020,3 hPa 0,0 l/m 0 min 0 min 0 W/m 0,0 km/h (0 Bft) 100,00 %
19.11.2018 04:54 2,8 C 2,8 C 2,2 C 95 % 1020,3 hPa 0,0 l/m 0 min 0 min 0 W/m 6,4 km/h (2 Bft) 100,00 %
19.11.2018 04:56 2,9 C 2,8 C 1,7 C 95 % 1020,3 hPa 0,0 l/m 0 min 0 min 0 W/m 6,4 km/h (2 Bft) 100,00 %
19.11.2018 04:58 2,9 C 2,8 C 2,2 C 95 % 1020,3 hPa 0,0 l/m 0 min 0 min 0 W/m 6,4 km/h (2 Bft) 100,00 %
19.11.2018 05:00 3,0 C 2,8 C 2,2 C 95 % 1020,3 hPa 0,0 l/m 0 min 0 min 0 W/m 6,4 km/h (2 Bft) 100,00 %
19.11.2018 05:02 3,0 C 3,3 C 2,2 C 95 % 1020,2 hPa 0,0 l/m 0 min 0 min 0 W/m 3,2 km/h (1 Bft) 100,00 %
19.11.2018 05:04 3,1 C 3,3 C 2,2 C 95 % 1020,3 hPa 0,0 l/m 0 min 0 min 0 W/m 3,2 km/h (1 Bft) 100,00 %
19.11.2018 05:06 3,1 C 3,3 C 2,2 C 95 % 1020,2 hPa 0,0 l/m 0 min 0 min 0 W/m 0,0 km/h (0 Bft) 100,00 %
19.11.2018 05:08 3,1 C 3,3 C 2,2 C 95 % 1020,2 hPa 0,0 l/m 0 min 0 min 0 W/m 6,4 km/h (2 Bft) 100,00 %
19.11.2018 05:10 3,1 C 3,3 C 2,2 C 95 % 1020,3 hPa 0,0 l/m 0 min 0 min 0 W/m 6,4 km/h (2 Bft) 100,00 %
19.11.2018 05:12 3,2 C 3,3 C 2,2 C 95 % 1020,2 hPa 0,0 l/m 0 min 0 min 0 W/m 12,9 km/h (3 Bft) 97,87 %
19.11.2018 05:14 3,2 C 3,3 C 2,2 C 95 % 1020,1 hPa 0,0 l/m 0 min 0 min 0 W/m 6,4 km/h (2 Bft) 100,00 %
19.11.2018 05:16 3,2 C 3,3 C 2,2 C 95 % 1020,1 hPa 0,0 l/m 0 min 0 min 0 W/m 9,7 km/h (2 Bft) 100,00 %
19.11.2018 05:18 3,3 C 3,3 C 2,2 C 95 % 1020,1 hPa 0,0 l/m 0 min 0 min 0 W/m 12,9 km/h (3 Bft) 100,00 %
19.11.2018 05:20 3,3 C 3,3 C 2,2 C 95 % 1020,1 hPa 0,0 l/m 0 min 0 min 0 W/m 9,7 km/h (2 Bft) 100,00 %
19.11.2018 05:22 3,4 C 3,3 C 2,2 C 95 % 1020,0 hPa 0,0 l/m 0 min 0 min 0 W/m 9,7 km/h (2 Bft) 97,87 %
19.11.2018 05:24 3,4 C 3,9 C 2,8 C 95 % 1020,0 hPa 0,0 l/m 0 min 0 min 0 W/m 6,4 km/h (2 Bft) 100,00 %
19.11.2018 05:26 3,4 C 3,9 C 2,8 C 95 % 1020,0 hPa 0,0 l/m 0 min 0 min 0 W/m 9,7 km/h (2 Bft) 100,00 %
19.11.2018 05:28 3,5 C 3,9 C 2,8 C 95 % 1020,0 hPa 0,0 l/m 0 min 0 min 0 W/m 9,7 km/h (2 Bft) 100,00 %
19.11.2018 05:30 3,5 C 3,9 C 2,8 C 95 % 1019,9 hPa 0,0 l/m 0 min 0 min 0 W/m 9,7 km/h (2 Bft) 97,87 %
19.11.2018 05:32 3,6 C 3,9 C 2,8 C 95 % 1019,9 hPa 0,0 l/m 0 min 0 min 0 W/m 6,4 km/h (2 Bft) 100,00 %
19.11.2018 05:34 3,6 C 3,9 C 2,8 C 95 % 1019,9 hPa 0,0 l/m 0 min 0 min 0 W/m 9,7 km/h (2 Bft) 100,00 %
19.11.2018 05:36 3,6 C 3,9 C 2,8 C 95 % 1019,9 hPa 0,0 l/m 0 min 0 min 0 W/m 9,7 km/h (2 Bft) 100,00 %
19.11.2018 05:38 3,7 C 3,9 C 2,8 C 95 % 1019,9 hPa 0,0 l/m 0 min 0 min 0 W/m 6,4 km/h (2 Bft) 100,00 %
19.11.2018 05:40 3,7 C 3,9 C 2,8 C 95 % 1019,9 hPa 0,0 l/m 0 min 0 min 0 W/m 6,4 km/h (2 Bft) 100,00 %
19.11.2018 05:42 3,7 C 3,9 C 2,8 C 95 % 1019,8 hPa 0,0 l/m 0 min 0 min 0 W/m 9,7 km/h (2 Bft) 100,00 %
19.11.2018 05:44 3,7 C 3,9 C 2,8 C 95 % 1019,8 hPa 0,0 l/m 0 min 0 min 0 W/m 9,7 km/h (2 Bft) 100,00 %
19.11.2018 05:46 3,8 C 3,9 C 2,8 C 95 % 1019,8 hPa 0,0 l/m 0 min 0 min 0 W/m 12,9 km/h (3 Bft) 97,87 %
19.11.2018 05:48 3,8 C 3,9 C 2,8 C 95 % 1019,7 hPa 0,0 l/m 0 min 0 min 0 W/m 9,7 km/h (2 Bft) 97,87 %
19.11.2018 05:50 3,8 C 3,9 C 2,8 C 95 % 1019,7 hPa 0,0 l/m 0 min 0 min 0 W/m 6,4 km/h (2 Bft) 100,00 %
19.11.2018 05:52 3,8 C 3,9 C 2,8 C 95 % 1019,7 hPa 0,0 l/m 0 min 0 min 0 W/m 16,1 km/h (3 Bft) 100,00 %
19.11.2018 05:54 3,9 C 3,9 C 2,8 C 95 % 1019,6 hPa 0,0 l/m 0 min 0 min 0 W/m 16,1 km/h (3 Bft) 100,00 %
19.11.2018 05:56 3,9 C 3,9 C 2,8 C 95 % 1019,7 hPa 0,0 l/m 0 min 0 min 0 W/m 12,9 km/h (3 Bft) 97,87 %
19.11.2018 05:58 3,9 C 3,9 C 2,8 C 95 % 1019,7 hPa 0,0 l/m 0 min 0 min 0 W/m 16,1 km/h (3 Bft) 97,87 %
19.11.2018 06:00 3,9 C 3,9 C 2,8 C 95 % 1019,7 hPa 0,0 l/m 0 min 0 min 0 W/m 12,9 km/h (3 Bft) 100,00 %
19.11.2018 06:02 4,0 C 3,9 C 2,8 C 95 % 1019,7 hPa 0,0 l/m 0 min 0 min 0 W/m 16,1 km/h (3 Bft) 97,83 %
19.11.2018 06:04 4,0 C 3,9 C 2,8 C 95 % 1019,6 hPa 0,0 l/m 0 min 0 min 0 W/m 12,9 km/h (3 Bft) 97,87 %
19.11.2018 06:08 4,1 C 3,9 C 2,8 C 94 % 1019,6 hPa 0,0 l/m 0 min 0 min 0 W/m 12,9 km/h (3 Bft) 97,87 %
19.11.2018 06:10 4,1 C 3,9 C 2,8 C 94 % 1019,6 hPa 0,0 l/m 0 min 0 min 0 W/m 16,1 km/h (3 Bft) 97,87 %
19.11.2018 06:12 4,1 C 3,9 C 2,8 C 94 % 1019,5 hPa 0,0 l/m 0 min 0 min 0 W/m 12,9 km/h (3 Bft) 95,74 %
19.11.2018 06:14 4,1 C 3,9 C 2,8 C 94 % 1019,5 hPa 0,0 l/m 0 min 0 min 0 W/m 22,5 km/h (4 Bft) 95,65 %
19.11.2018 06:16 4,1 C 3,9 C 2,8 C 94 % 1019,5 hPa 0,0 l/m 0 min 0 min 0 W/m 12,9 km/h (3 Bft) 97,87 %
19.11.2018 06:18 4,1 C 3,9 C 2,8 C 94 % 1019,5 hPa 0,0 l/m 0 min 0 min 0 W/m 9,7 km/h (2 Bft) 97,87 %
19.11.2018 06:20 4,1 C 3,9 C 2,8 C 94 % 1019,5 hPa 0,0 l/m 0 min 0 min 0 W/m 12,9 km/h (3 Bft) 93,62 %
19.11.2018 06:22 4,1 C 3,9 C 2,8 C 93 % 1019,4 hPa 0,0 l/m 0 min 0 min 0 W/m 16,1 km/h (3 Bft) 97,87 %
19.11.2018 06:24 4,2 C 3,9 C 2,8 C 93 % 1019,3 hPa 0,0 l/m 0 min 0 min 0 W/m 16,1 km/h (3 Bft) 95,74 %
19.11.2018 06:26 4,2 C 3,9 C 2,8 C 93 % 1019,3 hPa 0,0 l/m 0 min 0 min 0 W/m 16,1 km/h (3 Bft) 95,65 %
19.11.2018 06:28 4,2 C 3,9 C 2,8 C 93 % 1019,3 hPa 0,0 l/m 0 min 0 min 0 W/m 16,1 km/h (3 Bft) 93,62 %
19.11.2018 06:30 4,2 C 3,9 C 2,8 C 93 % 1019,3 hPa 0,0 l/m 0 min 0 min 0 W/m 16,1 km/h (3 Bft) 95,74 %
19.11.2018 06:32 4,2 C 3,9 C 2,8 C 93 % 1019,4 hPa 0,0 l/m 0 min 0 min 0 W/m 12,9 km/h (3 Bft) 95,74 %
19.11.2018 06:34 4,2 C 3,9 C 2,8 C 93 % 1019,2 hPa 0,0 l/m 0 min 0 min 0 W/m 16,1 km/h (3 Bft) 95,74 %
19.11.2018 06:36 4,3 C 3,9 C 2,8 C 93 % 1019,2 hPa 0,0 l/m 0 min 0 min 0 W/m 12,9 km/h (3 Bft) 95,74 %
19.11.2018 06:38 4,3 C 3,9 C 2,8 C 92 % 1019,3 hPa 0,0 l/m 0 min 0 min 0 W/m 12,9 km/h (3 Bft) 95,65 %
19.11.2018 06:40 4,2 C 3,9 C 2,8 C 92 % 1019,2 hPa 0,0 l/m 0 min 0 min 0 W/m 12,9 km/h (3 Bft) 95,74 %
19.11.2018 06:42 4,2 C 3,9 C 2,8 C 92 % 1019,3 hPa 0,0 l/m 0 min 0 min 0 W/m 9,7 km/h (2 Bft) 95,74 %
19.11.2018 06:44 4,2 C 3,9 C 2,8 C 92 % 1019,2 hPa 0,0 l/m 0 min 0 min 0 W/m 12,9 km/h (3 Bft) 93,62 %
19.11.2018 06:46 4,2 C 3,9 C 2,8 C 92 % 1019,1 hPa 0,0 l/m 0 min 0 min 0 W/m 12,9 km/h (3 Bft) 95,74 %
19.11.2018 06:48 4,2 C 3,9 C 2,8 C 92 % 1019,1 hPa 0,0 l/m 0 min 0 min 0 W/m 12,9 km/h (3 Bft) 97,83 %
19.11.2018 06:50 4,2 C 3,9 C 2,8 C 92 % 1019,1 hPa 0,0 l/m 0 min 0 min 0 W/m 12,9 km/h (3 Bft) 95,74 %
19.11.2018 06:52 4,2 C 3,9 C 2,8 C 92 % 1019,1 hPa 0,0 l/m 0 min 0 min 0 W/m 12,9 km/h (3 Bft) 91,49 %
19.11.2018 06:54 4,2 C 3,9 C 2,8 C 92 % 1019,0 hPa 0,0 l/m 0 min 0 min 0 W/m 16,1 km/h (3 Bft) 97,87 %
19.11.2018 06:56 4,2 C 3,9 C 2,8 C 91 % 1019,0 hPa 0,0 l/m 0 min 0 min 0 W/m 16,1 km/h (3 Bft) 93,75 %
19.11.2018 06:58 4,2 C 3,9 C 2,8 C 91 % 1019,0 hPa 0,0 l/m 0 min 0 min 0 W/m 16,1 km/h (3 Bft) 97,87 %
19.11.2018 07:00 4,2 C 3,9 C 2,8 C 91 % 1019,0 hPa 0,0 l/m 0 min 0 min 0 W/m 16,1 km/h (3 Bft) 97,83 %
19.11.2018 07:02 4,2 C 3,9 C 2,8 C 91 % 1019,0 hPa 0,0 l/m 0 min 0 min 0 W/m 16,1 km/h (3 Bft) 93,62 %
19.11.2018 07:04 4,2 C 3,9 C 2,8 C 91 % 1019,0 hPa 0,0 l/m 0 min 0 min 0 W/m 12,9 km/h (3 Bft) 97,87 %
19.11.2018 07:06 4,2 C 3,9 C 2,8 C 91 % 1018,9 hPa 0,0 l/m 0 min 0 min 0 W/m 16,1 km/h (3 Bft) 95,74 %
19.11.2018 07:08 4,2 C 3,9 C 2,8 C 91 % 1018,9 hPa 0,0 l/m 0 min 0 min 0 W/m 16,1 km/h (3 Bft) 97,87 %
19.11.2018 07:10 4,2 C 3,9 C 2,8 C 91 % 1018,9 hPa 0,0 l/m 0 min 0 min 0 W/m 12,9 km/h (3 Bft) 97,87 %
19.11.2018 07:12 4,2 C 3,9 C 2,8 C 91 % 1018,9 hPa 0,0 l/m 0 min 0 min 0 W/m 16,1 km/h (3 Bft) 97,83 %
19.11.2018 07:14 4,2 C 3,9 C 2,8 C 91 % 1018,9 hPa 0,0 l/m 0 min 0 min 0 W/m 12,9 km/h (3 Bft) 97,87 %
19.11.2018 07:16 4,2 C 3,9 C 2,8 C 91 % 1018,9 hPa 0,0 l/m 0 min 0 min 0 W/m 16,1 km/h (3 Bft) 95,74 %
19.11.2018 07:18 4,2 C 3,9 C 2,8 C 91 % 1018,8 hPa 0,0 l/m 0 min 0 min 0 W/m 22,5 km/h (4 Bft) 97,87 %
19.11.2018 07:20 4,2 C 3,9 C 2,8 C 91 % 1018,9 hPa 0,0 l/m 0 min 0 min 0 W/m 16,1 km/h (3 Bft) 97,87 %
19.11.2018 07:22 4,2 C 3,9 C 2,8 C 90 % 1018,8 hPa 0,0 l/m 0 min 0 min 0 W/m 9,7 km/h (2 Bft) 97,87 %
19.11.2018 07:24 4,2 C 3,9 C 2,8 C 90 % 1018,8 hPa 0,0 l/m 0 min 0 min 0 W/m 9,7 km/h (2 Bft) 95,65 %
19.11.2018 07:26 4,2 C 3,9 C 2,8 C 91 % 1018,9 hPa 0,0 l/m 0 min 0 min 0 W/m 12,9 km/h (3 Bft) 95,74 %
19.11.2018 07:28 4,2 C 3,9 C 2,8 C 91 % 1018,9 hPa 0,0 l/m 0 min 0 min 0 W/m 12,9 km/h (3 Bft) 97,87 %
19.11.2018 07:30 4,3 C 3,9 C 2,8 C 91 % 1018,8 hPa 0,0 l/m 0 min 0 min 0 W/m 9,7 km/h (2 Bft) 95,74 %
19.11.2018 07:32 4,2 C 3,9 C 2,8 C 90 % 1018,8 hPa 0,0 l/m 0 min 0 min 0 W/m 12,9 km/h (3 Bft) 95,74 %
19.11.2018 07:34 4,3 C 3,9 C 2,8 C 90 % 1018,8 hPa 0,0 l/m 0 min 0 min 0 W/m 9,7 km/h (2 Bft) 97,87 %
19.11.2018 07:36 4,3 C 3,9 C 2,8 C 90 % 1018,8 hPa 0,0 l/m 0 min 0 min 0 W/m 12,9 km/h (3 Bft) 97,83 %
19.11.2018 07:38 4,2 C 3,9 C 2,8 C 90 % 1018,8 hPa 0,0 l/m 0 min 0 min 0 W/m 12,9 km/h (3 Bft) 97,87 %
19.11.2018 07:40 4,2 C 3,9 C 2,8 C 90 % 1018,8 hPa 0,0 l/m 0 min 0 min 0 W/m 16,1 km/h (3 Bft) 97,87 %
19.11.2018 07:42 4,2 C 3,9 C 2,8 C 90 % 1018,9 hPa 0,0 l/m 0 min 0 min 0 W/m 12,9 km/h (3 Bft) 97,87 %
19.11.2018 07:44 4,2 C 3,9 C 2,8 C 90 % 1018,8 hPa 0,0 l/m 0 min 0 min 0 W/m 16,1 km/h (3 Bft) 97,87 %
19.11.2018 07:46 4,3 C 3,9 C 2,8 C 90 % 1018,8 hPa 0,0 l/m 0 min 0 min 0 W/m 19,3 km/h (3 Bft) 97,87 %
19.11.2018 07:48 4,3 C 3,9 C 2,8 C 90 % 1018,8 hPa 0,0 l/m 0 min 0 min 0 W/m 12,9 km/h (3 Bft) 97,83 %
19.11.2018 07:50 4,3 C 3,9 C 2,8 C 90 % 1018,8 hPa 0,0 l/m 0 min 0 min 0 W/m 12,9 km/h (3 Bft) 95,74 %
19.11.2018 07:52 4,3 C 3,9 C 2,8 C 90 % 1018,7 hPa 0,0 l/m 0 min 0 min 0 W/m 12,9 km/h (3 Bft) 97,87 %
19.11.2018 07:54 4,3 C 3,9 C 2,8 C 90 % 1018,7 hPa 0,0 l/m 0 min 0 min 0 W/m 22,5 km/h (4 Bft) 97,87 %
19.11.2018 07:56 4,3 C 3,9 C 2,8 C 90 % 1018,8 hPa 0,0 l/m 0 min 0 min 0 W/m 19,3 km/h (3 Bft) 97,87 %
19.11.2018 07:58 4,4 C 3,9 C 2,8 C 90 % 1018,7 hPa 0,0 l/m 0 min 0 min 0 W/m 19,3 km/h (3 Bft) 97,83 %
19.11.2018 08:00 4,4 C 3,9 C 2,8 C 90 % 1018,7 hPa 0,0 l/m 0 min 0 min 2 W/m 12,9 km/h (3 Bft) 97,87 %
19.11.2018 08:02 4,4 C 3,9 C 2,8 C 90 % 1018,7 hPa 0,0 l/m 0 min 0 min 5 W/m 29,0 km/h (5 Bft) 97,87 %
19.11.2018 08:04 4,4 C 3,9 C 2,8 C 90 % 1018,7 hPa 0,0 l/m 0 min 0 min 5 W/m 12,9 km/h (3 Bft) 95,74 %
19.11.2018 08:06 4,4 C 3,9 C 2,8 C 90 % 1018,7 hPa 0,0 l/m 0 min 0 min 5 W/m 16,1 km/h (3 Bft) 95,74 %
19.11.2018 08:08 4,4 C 3,9 C 2,8 C 90 % 1018,8 hPa 0,0 l/m 0 min 0 min 5 W/m 19,3 km/h (3 Bft) 100,00 %
19.11.2018 08:10 4,4 C 4,4 C 3,3 C 90 % 1018,6 hPa 0,0 l/m 0 min 0 min 5 W/m 25,7 km/h (4 Bft) 100,00 %
19.11.2018 08:12 4,4 C 4,4 C 3,3 C 90 % 1018,6 hPa 0,0 l/m 0 min 0 min 5 W/m 16,1 km/h (3 Bft) 100,00 %
19.11.2018 08:14 4,5 C 4,4 C 3,3 C 90 % 1018,6 hPa 0,0 l/m 0 min 0 min 5 W/m 19,3 km/h (3 Bft) 100,00 %
19.11.2018 08:16 4,5 C 4,4 C 3,3 C 90 % 1018,6 hPa 0,0 l/m 0 min 0 min 5 W/m 16,1 km/h (3 Bft) 100,00 %
19.11.2018 08:18 4,6 C 4,4 C 3,3 C 90 % 1018,5 hPa 0,0 l/m 0 min 0 min 8 W/m 19,3 km/h (3 Bft) 100,00 %
19.11.2018 08:20 4,6 C 4,4 C 3,3 C 90 % 1018,6 hPa 0,0 l/m 0 min 0 min 12 W/m 29,0 km/h (5 Bft) 100,00 %
19.11.2018 08:22 4,6 C 4,4 C 3,3 C 89 % 1018,6 hPa 0,0 l/m 0 min 0 min 14 W/m 16,1 km/h (3 Bft) 100,00 %
19.11.2018 08:24 4,6 C 4,4 C 3,3 C 89 % 1018,6 hPa 0,0 l/m 0 min 0 min 12 W/m 16,1 km/h (3 Bft) 100,00 %
19.11.2018 08:26 4,6 C 4,4 C 3,3 C 89 % 1018,6 hPa 0,0 l/m 0 min 0 min 11 W/m 12,9 km/h (3 Bft) 100,00 %
19.11.2018 08:28 4,7 C 4,4 C 3,3 C 89 % 1018,6 hPa 0,0 l/m 0 min 0 min 12 W/m 12,9 km/h (3 Bft) 100,00 %
19.11.2018 08:30 4,7 C 4,4 C 3,3 C 89 % 1018,6 hPa 0,0 l/m 0 min 0 min 14 W/m 22,5 km/h (4 Bft) 100,00 %
19.11.2018 08:32 4,7 C 4,4 C 3,3 C 89 % 1018,6 hPa 0,0 l/m 0 min 0 min 15 W/m 16,1 km/h (3 Bft) 97,87 %
19.11.2018 08:34 4,7 C 4,4 C 3,3 C 89 % 1018,6 hPa 0,0 l/m 0 min 0 min 18 W/m 12,9 km/h (3 Bft) 97,83 %
19.11.2018 08:36 4,7 C 4,4 C 3,3 C 89 % 1018,6 hPa 0,0 l/m 0 min 0 min 21 W/m 16,1 km/h (3 Bft) 100,00 %
19.11.2018 08:38 4,8 C 4,4 C 3,3 C 89 % 1018,6 hPa 0,0 l/m 0 min 0 min 23 W/m 22,5 km/h (4 Bft) 100,00 %
19.11.2018 08:40 4,8 C 4,4 C 3,3 C 89 % 1018,6 hPa 0,0 l/m 0 min 0 min 26 W/m 16,1 km/h (3 Bft) 97,87 %
19.11.2018 08:42 4,8 C 5,0 C 3,9 C 89 % 1018,7 hPa 0,0 l/m 0 min 0 min 26 W/m 16,1 km/h (3 Bft) 97,87 %
19.11.2018 08:44 4,8 C 5,0 C 3,9 C 89 % 1018,6 hPa 0,0 l/m 0 min 0 min 28 W/m 12,9 km/h (3 Bft) 97,87 %
19.11.2018 08:46 4,9 C 5,0 C 3,9 C 89 % 1018,5 hPa 0,0 l/m 0 min 0 min 29 W/m 16,1 km/h (3 Bft) 100,00 %
19.11.2018 08:48 4,9 C 5,0 C 3,9 C 89 % 1018,5 hPa 0,0 l/m 0 min 0 min 33 W/m 16,1 km/h (3 Bft) 100,00 %
19.11.2018 08:50 4,9 C 5,0 C 3,9 C 89 % 1018,5 hPa 0,0 l/m 0 min 0 min 33 W/m 35,4 km/h (5 Bft) 100,00 %
19.11.2018 08:52 4,9 C 5,0 C 3,9 C 89 % 1018,4 hPa 0,0 l/m 0 min 0 min 33 W/m 19,3 km/h (3 Bft) 97,87 %
19.11.2018 08:54 5,0 C 5,0 C 3,9 C 89 % 1018,4 hPa 0,0 l/m 0 min 0 min 34 W/m 22,5 km/h (4 Bft) 95,74 %
19.11.2018 08:56 5,0 C 5,0 C 3,9 C 89 % 1018,4 hPa 0,0 l/m 0 min 0 min 35 W/m 19,3 km/h (3 Bft) 97,83 %
19.11.2018 08:58 5,0 C 5,0 C 3,9 C 89 % 1018,4 hPa 0,0 l/m 0 min 0 min 42 W/m 16,1 km/h (3 Bft) 95,74 %
19.11.2018 09:00 5,1 C 5,0 C 3,9 C 89 % 1018,3 hPa 0,0 l/m 0 min 0 min 46 W/m 19,3 km/h (3 Bft) 97,87 %
19.11.2018 09:02 5,1 C 5,0 C 3,9 C 89 % 1018,3 hPa 0,0 l/m 0 min 0 min 44 W/m 16,1 km/h (3 Bft) 97,87 %
19.11.2018 09:04 5,1 C 5,0 C 3,9 C 88 % 1018,2 hPa 0,0 l/m 0 min 0 min 43 W/m 25,7 km/h (4 Bft) 93,62 %
19.11.2018 09:06 5,1 C 5,0 C 3,9 C 88 % 1018,3 hPa 0,0 l/m 0 min 0 min 46 W/m 19,3 km/h (3 Bft) 95,74 %
19.11.2018 09:08 5,2 C 5,0 C 3,9 C 88 % 1018,3 hPa 0,0 l/m 0 min 0 min 48 W/m 12,9 km/h (3 Bft) 95,65 %
19.11.2018 09:10 5,2 C 5,0 C 3,9 C 88 % 1018,3 hPa 0,0 l/m 0 min 0 min 44 W/m 12,9 km/h (3 Bft) 97,87 %
19.11.2018 09:12 5,2 C 5,0 C 3,9 C 88 % 1018,3 hPa 0,0 l/m 0 min 0 min 42 W/m 16,1 km/h (3 Bft) 93,62 %
19.11.2018 09:14 5,2 C 5,0 C 3,9 C 88 % 1018,2 hPa 0,0 l/m 0 min 0 min 40 W/m 22,5 km/h (4 Bft) 95,74 %
19.11.2018 09:16 5,2 C 5,0 C 3,9 C 88 % 1018,3 hPa 0,0 l/m 0 min 0 min 38 W/m 16,1 km/h (3 Bft) 95,74 %
19.11.2018 09:18 5,2 C 5,0 C 3,9 C 88 % 1018,2 hPa 0,0 l/m 0 min 0 min 40 W/m 41,8 km/h (6 Bft) 95,74 %
19.11.2018 09:20 5,3 C 5,0 C 4,4 C 88 % 1018,1 hPa 0,0 l/m 0 min 0 min 45 W/m 29,0 km/h (5 Bft) 95,65 %
19.11.2018 09:22 5,3 C 5,6 C 4,4 C 88 % 1018,1 hPa 0,0 l/m 0 min 0 min 51 W/m 32,2 km/h (5 Bft) 93,62 %
19.11.2018 09:24 5,3 C 5,6 C 4,4 C 87 % 1018,2 hPa 0,0 l/m 0 min 0 min 57 W/m 16,1 km/h (3 Bft) 93,62 %
19.11.2018 09:26 5,3 C 5,6 C 4,4 C 87 % 1018,2 hPa 0,0 l/m 0 min 0 min 66 W/m 29,0 km/h (5 Bft) 95,74 %
19.11.2018 09:28 5,3 C 5,6 C 4,4 C 87 % 1018,1 hPa 0,0 l/m 0 min 0 min 76 W/m 19,3 km/h (3 Bft) 95,74 %
19.11.2018 09:30 5,3 C 6,1 C 4,4 C 87 % 1018,0 hPa 0,0 l/m 2 min 0 min 109 W/m 22,5 km/h (4 Bft) 93,62 %
19.11.2018 09:32 5,4 C 6,7 C 4,4 C 87 % 1018,0 hPa 0,0 l/m 2 min 0 min 134 W/m 16,1 km/h (3 Bft) 93,48 %
19.11.2018 09:34 5,4 C 6,7 C 5,0 C 87 % 1018,1 hPa 0,0 l/m 2 min 0 min 127 W/m 16,1 km/h (3 Bft) 93,62 %
19.11.2018 09:36 5,4 C 7,2 C 5,0 C 87 % 1018,1 hPa 0,0 l/m 2 min 0 min 128 W/m 19,3 km/h (3 Bft) 93,62 %
19.11.2018 09:38 5,5 C 6,7 C 5,0 C 87 % 1018,1 hPa 0,0 l/m 2 min 0 min 160 W/m 19,3 km/h (3 Bft) 93,62 %
19.11.2018 09:40 5,6 C 6,1 C 5,0 C 86 % 1018,0 hPa 0,0 l/m 0 min 0 min 83 W/m 25,7 km/h (4 Bft) 95,74 %
19.11.2018 09:42 5,6 C 6,1 C 5,0 C 86 % 1018,1 hPa 0,0 l/m 0 min 0 min 78 W/m 16,1 km/h (3 Bft) 97,87 %
19.11.2018 09:44 5,6 C 5,6 C 5,0 C 86 % 1018,2 hPa 0,0 l/m 0 min 0 min 79 W/m 16,1 km/h (3 Bft) 97,83 %
19.11.2018 09:46 5,6 C 6,1 C 5,0 C 86 % 1018,2 hPa 0,0 l/m 0 min 0 min 87 W/m 29,0 km/h (5 Bft) 100,00 %
19.11.2018 09:48 5,6 C 5,6 C 5,0 C 86 % 1018,2 hPa 0,0 l/m 0 min 0 min 81 W/m 19,3 km/h (3 Bft) 97,87 %
19.11.2018 09:50 5,6 C 6,1 C 5,0 C 86 % 1018,2 hPa 0,0 l/m 0 min 0 min 90 W/m 22,5 km/h (4 Bft) 100,00 %
19.11.2018 09:52 5,7 C 6,1 C 5,0 C 86 % 1018,2 hPa 0,0 l/m 0 min 0 min 95 W/m 22,5 km/h (4 Bft) 100,00 %
19.11.2018 09:54 5,7 C 6,1 C 5,0 C 85 % 1018,1 hPa 0,0 l/m 0 min 0 min 102 W/m 12,9 km/h (3 Bft) 100,00 %
19.11.2018 09:56 5,7 C 6,1 C 5,0 C 85 % 1018,1 hPa 0,0 l/m 0 min 0 min 83 W/m 16,1 km/h (3 Bft) 97,83 %
19.11.2018 09:58 5,7 C 6,7 C 4,4 C 86 % 1018,0 hPa 0,0 l/m 0 min 0 min 73 W/m 12,9 km/h (3 Bft) 100,00 %
19.11.2018 10:00 5,7 C 7,8 C 4,4 C 86 % 1018,1 hPa 0,0 l/m 2 min 0 min 269 W/m 29,0 km/h (5 Bft) 100,00 %
19.11.2018 10:02 5,7 C 7,8 C 5,0 C 86 % 1018,1 hPa 0,0 l/m 2 min 0 min 279 W/m 19,3 km/h (3 Bft) 100,00 %
19.11.2018 10:04 5,8 C 8,9 C 5,0 C 85 % 1018,0 hPa 0,0 l/m 2 min 0 min 288 W/m 19,3 km/h (3 Bft) 100,00 %
19.11.2018 10:06 5,9 C 8,3 C 5,6 C 85 % 1018,1 hPa 0,0 l/m 2 min 0 min 244 W/m 19,3 km/h (3 Bft) 100,00 %
19.11.2018 10:08 5,9 C 7,8 C 5,6 C 85 % 1017,9 hPa 0,0 l/m 2 min 0 min 181 W/m 16,1 km/h (3 Bft) 100,00 %
19.11.2018 10:10 6,0 C 7,2 C 5,0 C 85 % 1018,0 hPa 0,0 l/m 0 min 0 min 114 W/m 12,9 km/h (3 Bft) 100,00 %
19.11.2018 10:12 6,0 C 6,7 C 5,0 C 85 % 1017,9 hPa 0,0 l/m 0 min 0 min 70 W/m 12,9 km/h (3 Bft) 97,87 %
19.11.2018 10:14 6,1 C 6,1 C 5,0 C 85 % 1018,0 hPa 0,0 l/m 0 min 0 min 69 W/m 12,9 km/h (3 Bft) 100,00 %
19.11.2018 10:16 6,1 C 6,1 C 5,0 C 84 % 1017,9 hPa 0,0 l/m 0 min 0 min 72 W/m 25,7 km/h (4 Bft) 100,00 %
19.11.2018 10:18 6,1 C 6,1 C 5,0 C 84 % 1017,9 hPa 0,0 l/m 0 min 0 min 85 W/m 19,3 km/h (3 Bft) 100,00 %
19.11.2018 10:20 6,0 C 6,1 C 5,0 C 84 % 1017,9 hPa 0,0 l/m 0 min 0 min 68 W/m 16,1 km/h (3 Bft) 100,00 %
19.11.2018 10:22 6,0 C 5,6 C 5,0 C 84 % 1017,8 hPa 0,0 l/m 0 min 0 min 56 W/m 16,1 km/h (3 Bft) 97,87 %
19.11.2018 10:24 5,9 C 5,6 C 4,4 C 84 % 1017,9 hPa 0,0 l/m 0 min 0 min 59 W/m 19,3 km/h (3 Bft) 100,00 %
19.11.2018 10:26 5,9 C 6,1 C 5,0 C 84 % 1017,9 hPa 0,0 l/m 0 min 0 min 99 W/m 22,5 km/h (4 Bft) 100,00 %
19.11.2018 10:28 5,9 C 6,7 C 5,0 C 84 % 1017,8 hPa 0,0 l/m 0 min 0 min 121 W/m 16,1 km/h (3 Bft) 97,87 %
19.11.2018 10:30 5,9 C 6,7 C 5,0 C 84 % 1017,8 hPa 0,0 l/m 2 min 0 min 135 W/m 16,1 km/h (3 Bft) 97,83 %
19.11.2018 10:32 5,9 C 6,7 C 5,0 C 84 % 1017,8 hPa 0,0 l/m 2 min 0 min 148 W/m 19,3 km/h (3 Bft) 95,74 %
19.11.2018 10:34 6,0 C 6,7 C 5,0 C 84 % 1017,8 hPa 0,0 l/m 0 min 0 min 95 W/m 19,3 km/h (3 Bft) 97,87 %
19.11.2018 10:36 6,0 C 6,1 C 5,0 C 84 % 1017,8 hPa 0,0 l/m 0 min 0 min 55 W/m 16,1 km/h (3 Bft) 97,87 %
19.11.2018 10:38 6,0 C 6,1 C 5,0 C 84 % 1017,9 hPa 0,0 l/m 0 min 0 min 48 W/m 19,3 km/h (3 Bft) 100,00 %
19.11.2018 10:40 6,0 C 5,6 C 5,0 C 83 % 1017,7 hPa 0,0 l/m 0 min 0 min 52 W/m 16,1 km/h (3 Bft) 97,87 %
19.11.2018 10:42 6,0 C 5,6 C 5,0 C 83 % 1017,7 hPa 0,0 l/m 0 min 0 min 41 W/m 19,3 km/h (3 Bft) 97,83 %
19.11.2018 10:44 5,9 C 5,6 C 4,4 C 83 % 1017,7 hPa 0,0 l/m 0 min 0 min 26 W/m 16,1 km/h (3 Bft) 97,87 %
19.11.2018 10:46 5,9 C 5,6 C 4,4 C 83 % 1017,6 hPa 0,0 l/m 0 min 0 min 24 W/m 25,7 km/h (4 Bft) 97,87 %
19.11.2018 10:48 5,9 C 5,6 C 4,4 C 83 % 1017,6 hPa 0,0 l/m 0 min 0 min 19 W/m 12,9 km/h (3 Bft) 97,87 %
19.11.2018 10:50 5,9 C 5,0 C 4,4 C 83 % 1017,6 hPa 0,0 l/m 0 min 0 min 17 W/m 19,3 km/h (3 Bft) 97,87 %
19.11.2018 10:52 5,8 C 5,0 C 4,4 C 83 % 1017,6 hPa 0,0 l/m 0 min 0 min 18 W/m 19,3 km/h (3 Bft) 97,87 %
19.11.2018 10:54 5,8 C 5,0 C 4,4 C 83 % 1017,6 hPa 0,0 l/m 0 min 0 min 20 W/m 16,1 km/h (3 Bft) 97,83 %
19.11.2018 10:56 5,8 C 5,0 C 4,4 C 82 % 1017,6 hPa 0,0 l/m 0 min 2 min 19 W/m 19,3 km/h (3 Bft) 95,74 %
19.11.2018 10:58 5,7 C 5,0 C 4,4 C 82 % 1017,5 hPa 0,0 l/m 0 min 2 min 15 W/m 19,3 km/h (3 Bft) 95,74 %
19.11.2018 11:00 5,7 C 5,0 C 4,4 C 82 % 1017,5 hPa 0,0 l/m 0 min 0 min 16 W/m 25,7 km/h (4 Bft) 95,74 %
19.11.2018 11:02 5,7 C 5,0 C 4,4 C 82 % 1017,5 hPa 0,0 l/m 0 min 0 min 22 W/m 25,7 km/h (4 Bft) 97,87 %
19.11.2018 11:04 5,7 C 5,0 C 4,4 C 82 % 1017,5 hPa 0,0 l/m 0 min 0 min 23 W/m 19,3 km/h (3 Bft) 97,87 %
19.11.2018 11:06 5,7 C 5,0 C 4,4 C 83 % 1017,5 hPa 0,0 l/m 0 min 0 min 25 W/m 16,1 km/h (3 Bft) 93,48 %
19.11.2018 11:08 5,6 C 5,0 C 4,4 C 82 % 1017,5 hPa 0,0 l/m 0 min 0 min 25 W/m 16,1 km/h (3 Bft) 97,87 %
19.11.2018 11:10 5,6 C 5,0 C 4,4 C 83 % 1017,4 hPa 0,0 l/m 0 min 0 min 26 W/m 19,3 km/h (3 Bft) 97,87 %
19.11.2018 11:12 5,6 C 5,0 C 4,4 C 83 % 1017,4 hPa 0,0 l/m 0 min 0 min 29 W/m 19,3 km/h (3 Bft) 97,87 %
19.11.2018 11:14 5,6 C 5,0 C 4,4 C 83 % 1017,4 hPa 0,0 l/m 0 min 0 min 36 W/m 25,7 km/h (4 Bft) 97,87 %
19.11.2018 11:16 5,6 C 5,0 C 4,4 C 83 % 1017,3 hPa 0,0 l/m 0 min 0 min 47 W/m 16,1 km/h (3 Bft) 93,62 %
19.11.2018 11:18 5,6 C 5,0 C 4,4 C 83 % 1017,3 hPa 0,0 l/m 0 min 0 min 53 W/m 16,1 km/h (3 Bft) 95,65 %
19.11.2018 11:20 5,6 C 5,6 C 4,4 C 83 % 1017,2 hPa 0,0 l/m 0 min 0 min 56 W/m 19,3 km/h (3 Bft) 97,87 %
19.11.2018 11:22 5,6 C 5,6 C 4,4 C 83 % 1017,2 hPa 0,0 l/m 0 min 0 min 59 W/m 19,3 km/h (3 Bft) 97,87 %
19.11.2018 11:24 5,6 C 5,6 C 4,4 C 83 % 1017,2 hPa 0,0 l/m 0 min 0 min 65 W/m 16,1 km/h (3 Bft) 95,74 %
19.11.2018 11:26 5,6 C 5,6 C 4,4 C 83 % 1017,1 hPa 0,0 l/m 0 min 0 min 70 W/m 22,5 km/h (4 Bft) 100,00 %
19.11.2018 11:28 5,6 C 5,6 C 4,4 C 82 % 1017,1 hPa 0,0 l/m 0 min 0 min 72 W/m 22,5 km/h (4 Bft) 100,00 %
19.11.2018 11:30 5,6 C 5,6 C 4,4 C 82 % 1017,1 hPa 0,0 l/m 0 min 0 min 80 W/m 22,5 km/h (4 Bft) 100,00 %
19.11.2018 11:32 5,6 C 5,6 C 5,0 C 82 % 1017,0 hPa 0,0 l/m 0 min 0 min 84 W/m 19,3 km/h (3 Bft) 100,00 %
19.11.2018 11:34 5,7 C 5,6 C 5,0 C 82 % 1017,0 hPa 0,0 l/m 0 min 0 min 73 W/m 19,3 km/h (3 Bft) 97,87 %
19.11.2018 11:36 5,7 C 5,6 C 5,0 C 82 % 1016,8 hPa 0,0 l/m 0 min 0 min 54 W/m 12,9 km/h (3 Bft) 100,00 %
19.11.2018 11:38 5,7 C 5,6 C 5,0 C 82 % 1016,9 hPa 0,0 l/m 0 min 0 min 56 W/m 16,1 km/h (3 Bft) 97,87 %
19.11.2018 11:40 5,7 C 5,6 C 5,0 C 82 % 1016,8 hPa 0,0 l/m 0 min 0 min 91 W/m 25,7 km/h (4 Bft) 93,48 %
19.11.2018 11:42 5,7 C 5,6 C 5,0 C 82 % 1016,7 hPa 0,0 l/m 0 min 0 min 106 W/m 22,5 km/h (4 Bft) 97,87 %
19.11.2018 11:44 5,7 C 6,1 C 5,0 C 82 % 1016,7 hPa 0,0 l/m 0 min 0 min 107 W/m 38,6 km/h (5 Bft) 95,74 %
19.11.2018 11:46 5,7 C 6,1 C 5,0 C 82 % 1016,7 hPa 0,0 l/m 0 min 0 min 112 W/m 16,1 km/h (3 Bft) 95,74 %
19.11.2018 11:48 5,8 C 6,1 C 5,0 C 82 % 1016,7 hPa 0,0 l/m 0 min 0 min 101 W/m 16,1 km/h (3 Bft) 95,74 %
19.11.2018 11:50 5,8 C 6,1 C 5,0 C 82 % 1016,7 hPa 0,0 l/m 0 min 0 min 94 W/m 19,3 km/h (3 Bft) 97,87 %
19.11.2018 11:52 5,8 C 6,1 C 5,0 C 82 % 1016,7 hPa 0,0 l/m 0 min 0 min 79 W/m 19,3 km/h (3 Bft) 97,83 %
19.11.2018 11:54 5,8 C 5,6 C 5,0 C 81 % 1016,6 hPa 0,0 l/m 0 min 0 min 63 W/m 25,7 km/h (4 Bft) 97,87 %
19.11.2018 11:56 5,8 C 5,6 C 5,0 C 81 % 1016,7 hPa 0,0 l/m 0 min 2 min 59 W/m 19,3 km/h (3 Bft) 93,62 %
19.11.2018 11:58 5,8 C 5,6 C 5,0 C 81 % 1016,6 hPa 0,0 l/m 0 min 2 min 79 W/m 16,1 km/h (3 Bft) 91,49 %
19.11.2018 12:00 5,9 C 6,1 C 5,0 C 82 % 1016,5 hPa 0,0 l/m 0 min 2 min 122 W/m 16,1 km/h (3 Bft) 97,92 %
19.11.2018 12:02 5,9 C 6,1 C 5,6 C 82 % 1016,6 hPa 0,0 l/m 0 min 0 min 145 W/m 12,9 km/h (3 Bft) 94,29 %
19.11.2018 12:04 5,9 C 6,7 C 5,6 C 83 % 1016,3 hPa 0,0 l/m 2 min 0 min 187 W/m 19,3 km/h (3 Bft) 95,74 %
19.11.2018 12:08 6,0 C 8,9 C 6,1 C 83 % 1016,2 hPa 0,0 l/m 4 min 4 min 219 W/m 25,7 km/h (4 Bft) 94,68 %
19.11.2018 12:10 6,1 C 8,9 C 6,7 C 84 % 1016,2 hPa 0,0 l/m 2 min 2 min 398 W/m 19,3 km/h (3 Bft) 96,55 %
19.11.2018 12:12 6,2 C 10,0 C 6,7 C 84 % 1016,1 hPa 0,0 l/m 2 min 2 min 267 W/m 12,9 km/h (3 Bft) 91,43 %
19.11.2018 12:14 6,4 C 11,1 C 6,7 C 85 % 1016,1 hPa 0,0 l/m 2 min 0 min 397 W/m 19,3 km/h (3 Bft) 94,92 %
19.11.2018 12:16 6,4 C 9,4 C 6,7 C 84 % 1016,2 hPa 0,0 l/m 2 min 0 min 361 W/m 19,3 km/h (3 Bft) 95,74 %
19.11.2018 12:18 6,4 C 8,3 C 6,1 C 84 % 1016,1 hPa 0,0 l/m 0 min 0 min 137 W/m 19,3 km/h (3 Bft) 94,29 %
19.11.2018 12:20 6,5 C 10,0 C 6,1 C 83 % 1016,2 hPa 0,0 l/m 0 min 0 min 140 W/m 16,1 km/h (3 Bft) 95,74 %
19.11.2018 12:22 6,6 C 10,6 C 6,1 C 83 % 1016,2 hPa 0,0 l/m 2 min 0 min 470 W/m 22,5 km/h (4 Bft) 97,83 %
19.11.2018 12:24 6,6 C 11,7 C 6,1 C 83 % 1016,2 hPa 0,0 l/m 2 min 0 min 341 W/m 16,1 km/h (3 Bft) 96,61 %
19.11.2018 12:26 6,8 C 11,7 C 6,7 C 82 % 1016,2 hPa 0,0 l/m 2 min 0 min 341 W/m 12,9 km/h (3 Bft) 94,29 %
19.11.2018 12:28 6,9 C 12,2 C 6,7 C 83 % 1016,2 hPa 0,0 l/m 2 min 0 min 418 W/m 16,1 km/h (3 Bft) 98,31 %
19.11.2018 12:30 7,1 C 10,0 C 6,7 C 82 % 1016,2 hPa 0,0 l/m 2 min 0 min 246 W/m 16,1 km/h (3 Bft) 95,65 %
19.11.2018 12:32 7,1 C 10,0 C 6,7 C 81 % 1016,1 hPa 0,0 l/m 2 min 0 min 175 W/m 16,1 km/h (3 Bft) 94,44 %
19.11.2018 12:34 7,2 C 12,2 C 6,7 C 81 % 1016,1 hPa 0,0 l/m 0 min 0 min 151 W/m 16,1 km/h (3 Bft) 97,83 %
19.11.2018 12:36 7,3 C 12,8 C 6,7 C 82 % 1016,1 hPa 0,0 l/m 2 min 0 min 341 W/m 22,5 km/h (4 Bft) 98,31 %
19.11.2018 12:38 7,4 C 12,8 C 7,2 C 81 % 1016,0 hPa 0,0 l/m 2 min 0 min 463 W/m 16,1 km/h (3 Bft) 97,87 %
19.11.2018 12:40 7,6 C 13,3 C 7,2 C 80 % 1015,9 hPa 0,0 l/m 2 min 0 min 447 W/m 16,1 km/h (3 Bft) 97,87 %
19.11.2018 12:42 7,7 C 10,6 C 6,7 C 79 % 1015,9 hPa 0,0 l/m 2 min 0 min 321 W/m 22,5 km/h (4 Bft) 97,14 %
19.11.2018 12:44 7,6 C 8,9 C 6,7 C 78 % 1015,8 hPa 0,0 l/m 0 min 0 min 134 W/m 25,7 km/h (4 Bft) 95,74 %
19.11.2018 12:46 7,6 C 7,8 C 6,7 C 77 % 1015,9 hPa 0,0 l/m 0 min 0 min 111 W/m 16,1 km/h (3 Bft) 97,83 %
19.11.2018 12:48 7,5 C 7,2 C 6,1 C 77 % 1015,8 hPa 0,0 l/m 0 min 0 min 90 W/m 12,9 km/h (3 Bft) 97,87 %
19.11.2018 12:50 7,4 C 6,7 C 6,1 C 77 % 1015,9 hPa 0,0 l/m 0 min 2 min 66 W/m 19,3 km/h (3 Bft) 95,74 %
19.11.2018 12:52 7,3 C 6,1 C 5,6 C 77 % 1015,9 hPa 0,0 l/m 0 min 0 min 63 W/m 29,0 km/h (5 Bft) 97,87 %
19.11.2018 12:54 7,1 C 5,6 C 5,6 C 78 % 1015,9 hPa 0,0 l/m 0 min 2 min 78 W/m 22,5 km/h (4 Bft) 96,61 %
19.11.2018 12:56 6,9 C 5,0 C 5,6 C 78 % 1015,8 hPa 0,0 l/m 0 min 2 min 85 W/m 25,7 km/h (4 Bft) 94,29 %
19.11.2018 12:58 6,8 C 5,0 C 5,0 C 80 % 1015,9 hPa 0,0 l/m 0 min 2 min 99 W/m 19,3 km/h (3 Bft) 97,83 %
19.11.2018 13:00 6,6 C 6,7 C 5,0 C 81 % 1015,8 hPa 0,0 l/m 0 min 0 min 99 W/m 22,5 km/h (4 Bft) 97,87 %
19.11.2018 13:02 6,5 C 9,4 C 5,0 C 82 % 1015,7 hPa 0,0 l/m 2 min 0 min 400 W/m 19,3 km/h (3 Bft) 97,87 %
19.11.2018 13:04 6,4 C 8,3 C 5,0 C 83 % 1015,6 hPa 0,0 l/m 2 min 0 min 304 W/m 16,1 km/h (3 Bft) 95,74 %
19.11.2018 13:06 6,4 C 7,2 C 5,0 C 83 % 1015,7 hPa 0,0 l/m 0 min 0 min 97 W/m 16,1 km/h (3 Bft) 98,28 %
19.11.2018 13:08 6,3 C 6,1 C 4,4 C 83 % 1015,6 hPa 0,0 l/m 0 min 0 min 84 W/m 16,1 km/h (3 Bft) 100,00 %
19.11.2018 13:10 6,1 C 6,1 C 4,4 C 82 % 1015,5 hPa 0,0 l/m 0 min 0 min 67 W/m 12,9 km/h (3 Bft) 97,87 %
19.11.2018 13:12 6,0 C 6,1 C 4,4 C 82 % 1015,6 hPa 0,0 l/m 0 min 0 min 89 W/m 16,1 km/h (3 Bft) 97,14 %
19.11.2018 13:14 5,9 C 5,6 C 4,4 C 82 % 1015,5 hPa 0,0 l/m 0 min 0 min 79 W/m 12,9 km/h (3 Bft) 100,00 %
19.11.2018 13:16 5,8 C 6,1 C 4,4 C 83 % 1015,5 hPa 0,0 l/m 0 min 0 min 100 W/m 12,9 km/h (3 Bft) 100,00 %
19.11.2018 13:18 5,7 C 6,1 C 4,4 C 83 % 1015,5 hPa 0,0 l/m 0 min 0 min 115 W/m 16,1 km/h (3 Bft) 100,00 %
19.11.2018 13:20 5,7 C 7,2 C 4,4 C 83 % 1015,5 hPa 0,0 l/m 2 min 0 min 202 W/m 19,3 km/h (3 Bft) 100,00 %
19.11.2018 13:22 5,6 C 7,2 C 4,4 C 84 % 1015,4 hPa 0,0 l/m 2 min 0 min 164 W/m 22,5 km/h (4 Bft) 100,00 %
19.11.2018 13:24 5,6 C 7,2 C 4,4 C 84 % 1015,3 hPa 0,0 l/m 2 min 0 min 161 W/m 16,1 km/h (3 Bft) 98,31 %
19.11.2018 13:26 5,7 C 9,4 C 5,0 C 84 % 1015,3 hPa 0,0 l/m 2 min 0 min 204 W/m 16,1 km/h (3 Bft) 100,00 %
19.11.2018 13:28 5,8 C 11,1 C 5,0 C 84 % 1015,2 hPa 0,0 l/m 2 min 0 min 385 W/m 12,9 km/h (3 Bft) 100,00 %
19.11.2018 13:30 5,9 C 12,2 C 5,0 C 85 % 1015,2 hPa 0,0 l/m 2 min 0 min 370 W/m 16,1 km/h (3 Bft) 97,83 %
19.11.2018 13:32 6,1 C 12,2 C 5,6 C 85 % 1015,2 hPa 0,0 l/m 2 min 0 min 359 W/m 16,1 km/h (3 Bft) 100,00 %
19.11.2018 13:34 6,3 C 12,8 C 5,6 C 85 % 1015,2 hPa 0,0 l/m 2 min 0 min 365 W/m 16,1 km/h (3 Bft) 100,00 %
19.11.2018 13:36 6,4 C 12,2 C 5,6 C 84 % 1015,2 hPa 0,0 l/m 2 min 0 min 379 W/m 12,9 km/h (3 Bft) 98,31 %
19.11.2018 13:38 6,5 C 11,1 C 5,6 C 84 % 1015,2 hPa 0,0 l/m 2 min 0 min 229 W/m 19,3 km/h (3 Bft) 100,00 %
19.11.2018 13:40 6,6 C 10,6 C 5,6 C 83 % 1015,2 hPa 0,0 l/m 2 min 0 min 212 W/m 25,7 km/h (4 Bft) 100,00 %
19.11.2018 13:42 6,7 C 10,0 C 5,6 C 82 % 1015,2 hPa 0,0 l/m 2 min 0 min 385 W/m 19,3 km/h (3 Bft) 100,00 %
19.11.2018 13:44 6,7 C 8,3 C 5,6 C 81 % 1015,1 hPa 0,0 l/m 2 min 0 min 228 W/m 19,3 km/h (3 Bft) 100,00 %
19.11.2018 13:46 6,7 C 7,8 C 5,6 C 80 % 1015,1 hPa 0,0 l/m 2 min 0 min 160 W/m 29,0 km/h (5 Bft) 97,87 %
19.11.2018 13:48 6,7 C 7,2 C 6,1 C 79 % 1015,1 hPa 0,0 l/m 2 min 0 min 164 W/m 16,1 km/h (3 Bft) 96,61 %
19.11.2018 13:50 6,6 C 7,2 C 6,1 C 79 % 1015,1 hPa 0,0 l/m 2 min 0 min 154 W/m 19,3 km/h (3 Bft) 97,14 %
19.11.2018 13:52 6,6 C 6,7 C 5,6 C 79 % 1015,1 hPa 0,0 l/m 0 min 0 min 133 W/m 22,5 km/h (4 Bft) 98,28 %
19.11.2018 13:54 6,6 C 6,7 C 5,6 C 78 % 1015,1 hPa 0,0 l/m 0 min 0 min 113 W/m 25,7 km/h (4 Bft) 97,22 %
19.11.2018 13:56 6,5 C 6,1 C 5,6 C 78 % 1015,1 hPa 0,0 l/m 0 min 0 min 105 W/m 16,1 km/h (3 Bft) 97,83 %
19.11.2018 13:58 6,4 C 6,1 C 5,6 C 78 % 1015,1 hPa 0,0 l/m 0 min 0 min 101 W/m 22,5 km/h (4 Bft) 97,87 %
19.11.2018 14:00 6,4 C 6,1 C 5,6 C 78 % 1015,1 hPa 0,0 l/m 0 min 0 min 100 W/m 16,1 km/h (3 Bft) 97,87 %
19.11.2018 14:02 6,4 C 6,1 C 5,6 C 77 % 1015,0 hPa 0,0 l/m 0 min 0 min 107 W/m 16,1 km/h (3 Bft) 97,87 %
19.11.2018 14:04 6,4 C 6,1 C 5,6 C 77 % 1015,0 hPa 0,0 l/m 0 min 0 min 111 W/m 19,3 km/h (3 Bft) 98,28 %
19.11.2018 14:06 6,4 C 6,7 C 5,6 C 77 % 1015,0 hPa 0,0 l/m 0 min 0 min 116 W/m 12,9 km/h (3 Bft) 95,74 %
19.11.2018 14:08 6,4 C 6,7 C 5,6 C 78 % 1015,0 hPa 0,0 l/m 0 min 0 min 128 W/m 16,1 km/h (3 Bft) 97,87 %
19.11.2018 14:10 6,3 C 6,7 C 5,6 C 78 % 1015,1 hPa 0,0 l/m 0 min 0 min 126 W/m 22,5 km/h (4 Bft) 97,14 %
19.11.2018 14:12 6,3 C 6,1 C 5,6 C 78 % 1015,0 hPa 0,0 l/m 0 min 0 min 116 W/m 29,0 km/h (5 Bft) 96,61 %
19.11.2018 14:14 6,3 C 6,1 C 5,6 C 77 % 1014,9 hPa 0,0 l/m 0 min 0 min 113 W/m 19,3 km/h (3 Bft) 97,14 %
19.11.2018 14:16 6,3 C 6,1 C 5,6 C 77 % 1014,9 hPa 0,0 l/m 0 min 0 min 106 W/m 19,3 km/h (3 Bft) 97,87 %
19.11.2018 14:18 6,3 C 6,1 C 5,6 C 77 % 1014,9 hPa 0,0 l/m 0 min 0 min 96 W/m 22,5 km/h (4 Bft) 97,87 %
19.11.2018 14:20 6,3 C 6,1 C 5,6 C 77 % 1014,9 hPa 0,0 l/m 0 min 0 min 91 W/m 29,0 km/h (5 Bft) 97,83 %
19.11.2018 14:22 6,2 C 6,1 C 5,6 C 77 % 1014,9 hPa 0,0 l/m 0 min 0 min 86 W/m 16,1 km/h (3 Bft) 97,87 %
19.11.2018 14:24 6,2 C 6,1 C 5,6 C 77 % 1014,9 hPa 0,0 l/m 0 min 0 min 79 W/m 16,1 km/h (3 Bft) 96,61 %
19.11.2018 14:26 6,2 C 6,1 C 5,6 C 77 % 1014,9 hPa 0,0 l/m 0 min 0 min 75 W/m 22,5 km/h (4 Bft) 88,57 %
19.11.2018 14:28 6,2 C 6,1 C 5,0 C 77 % 1014,9 hPa 0,0 l/m 0 min 0 min 74 W/m 25,7 km/h (4 Bft) 95,74 %
19.11.2018 14:30 6,2 C 6,1 C 5,0 C 76 % 1014,8 hPa 0,0 l/m 0 min 0 min 74 W/m 22,5 km/h (4 Bft) 95,65 %
19.11.2018 14:32 6,2 C 6,1 C 5,0 C 76 % 1014,9 hPa 0,0 l/m 0 min 0 min 76 W/m 19,3 km/h (3 Bft) 93,22 %
19.11.2018 14:34 6,1 C 6,1 C 5,0 C 77 % 1014,8 hPa 0,0 l/m 0 min 0 min 76 W/m 25,7 km/h (4 Bft) 100,00 %
19.11.2018 14:36 6,1 C 5,6 C 5,0 C 77 % 1014,8 hPa 0,0 l/m 0 min 0 min 74 W/m 22,5 km/h (4 Bft) 94,92 %
19.11.2018 14:38 6,1 C 5,6 C 5,0 C 77 % 1014,8 hPa 0,0 l/m 0 min 0 min 70 W/m 25,7 km/h (4 Bft) 95,74 %
19.11.2018 14:40 6,1 C 5,6 C 5,0 C 76 % 1014,8 hPa 0,0 l/m 0 min 0 min 73 W/m 25,7 km/h (4 Bft) 97,14 %
19.11.2018 14:42 6,1 C 5,6 C 5,0 C 76 % 1014,8 hPa 0,0 l/m 0 min 0 min 75 W/m 25,7 km/h (4 Bft) 97,83 %
19.11.2018 14:44 6,1 C 5,6 C 5,0 C 77 % 1014,8 hPa 0,0 l/m 0 min 0 min 77 W/m 12,9 km/h (3 Bft) 95,74 %
19.11.2018 14:46 6,1 C 6,1 C 5,0 C 77 % 1014,8 hPa 0,0 l/m 0 min 0 min 81 W/m 19,3 km/h (3 Bft) 98,31 %
19.11.2018 14:48 6,1 C 6,1 C 5,0 C 77 % 1014,8 hPa 0,0 l/m 0 min 0 min 84 W/m 9,7 km/h (2 Bft) 95,74 %
19.11.2018 14:50 6,1 C 6,1 C 5,0 C 77 % 1014,8 hPa 0,0 l/m 0 min 0 min 83 W/m 12,9 km/h (3 Bft) 91,43 %
19.11.2018 14:52 6,0 C 6,1 C 5,0 C 78 % 1014,8 hPa 0,0 l/m 0 min 0 min 78 W/m 12,9 km/h (3 Bft) 95,74 %
19.11.2018 14:54 6,0 C 5,6 C 5,0 C 78 % 1014,7 hPa 0,0 l/m 0 min 0 min 64 W/m 16,1 km/h (3 Bft) 95,65 %
19.11.2018 14:56 6,0 C 5,6 C 5,0 C 77 % 1014,7 hPa 0,0 l/m 0 min 0 min 62 W/m 16,1 km/h (3 Bft) 95,74 %
19.11.2018 14:58 6,0 C 5,6 C 5,0 C 77 % 1014,6 hPa 0,0 l/m 0 min 0 min 65 W/m 19,3 km/h (3 Bft) 95,74 %
19.11.2018 15:00 5,9 C 5,6 C 5,0 C 77 % 1014,6 hPa 0,0 l/m 0 min 0 min 65 W/m 19,3 km/h (3 Bft) 95,74 %
19.11.2018 15:02 5,9 C 5,6 C 5,0 C 77 % 1014,6 hPa 0,0 l/m 0 min 0 min 63 W/m 25,7 km/h (4 Bft) 95,74 %
19.11.2018 15:04 5,9 C 5,6 C 5,0 C 77 % 1014,7 hPa 0,0 l/m 0 min 0 min 62 W/m 19,3 km/h (3 Bft) 95,74 %
19.11.2018 15:06 5,9 C 5,6 C 5,0 C 77 % 1014,6 hPa 0,0 l/m 0 min 0 min 60 W/m 22,5 km/h (4 Bft) 96,55 %
19.11.2018 15:08 5,8 C 5,6 C 5,0 C 77 % 1014,5 hPa 0,0 l/m 0 min 0 min 55 W/m 16,1 km/h (3 Bft) 97,14 %
19.11.2018 15:10 5,8 C 5,6 C 5,0 C 77 % 1014,6 hPa 0,0 l/m 0 min 2 min 53 W/m 19,3 km/h (3 Bft) 91,49 %
19.11.2018 15:12 5,8 C 5,6 C 5,0 C 78 % 1014,5 hPa 0,0 l/m 0 min 2 min 51 W/m 29,0 km/h (5 Bft) 91,49 %
19.11.2018 15:14 5,8 C 5,0 C 5,0 C 78 % 1014,5 hPa 0,0 l/m 0 min 2 min 50 W/m 25,7 km/h (4 Bft) 97,87 %
19.11.2018 15:16 5,7 C 5,0 C 4,4 C 78 % 1014,5 hPa 0,0 l/m 0 min 0 min 48 W/m 16,1 km/h (3 Bft) 95,74 %
19.11.2018 15:18 5,7 C 5,0 C 4,4 C 78 % 1014,4 hPa 0,0 l/m 0 min 0 min 47 W/m 22,5 km/h (4 Bft) 97,83 %
19.11.2018 15:20 5,7 C 5,0 C 4,4 C 78 % 1014,6 hPa 0,0 l/m 0 min 0 min 47 W/m 16,1 km/h (3 Bft) 95,74 %
19.11.2018 15:22 5,6 C 5,0 C 4,4 C 79 % 1014,6 hPa 0,0 l/m 0 min 0 min 44 W/m 19,3 km/h (3 Bft) 97,87 %
19.11.2018 15:24 5,6 C 5,0 C 4,4 C 79 % 1014,6 hPa 0,0 l/m 0 min 0 min 40 W/m 32,2 km/h (5 Bft) 97,87 %
19.11.2018 15:26 5,6 C 5,0 C 4,4 C 79 % 1014,6 hPa 0,0 l/m 0 min 0 min 39 W/m 12,9 km/h (3 Bft) 97,87 %
19.11.2018 15:28 5,6 C 5,0 C 4,4 C 79 % 1014,6 hPa 0,0 l/m 0 min 0 min 37 W/m 35,4 km/h (5 Bft) 97,87 %
19.11.2018 15:30 5,6 C 5,0 C 4,4 C 79 % 1014,5 hPa 0,0 l/m 0 min 0 min 36 W/m 22,5 km/h (4 Bft) 95,65 %
19.11.2018 15:32 5,5 C 5,0 C 4,4 C 79 % 1014,5 hPa 0,0 l/m 0 min 0 min 37 W/m 29,0 km/h (5 Bft) 97,87 %
19.11.2018 15:34 5,5 C 5,0 C 4,4 C 79 % 1014,5 hPa 0,0 l/m 0 min 0 min 39 W/m 22,5 km/h (4 Bft) 95,74 %
19.11.2018 15:36 5,5 C 5,0 C 4,4 C 78 % 1014,3 hPa 0,0 l/m 0 min 0 min 38 W/m 22,5 km/h (4 Bft) 93,22 %
19.11.2018 15:38 5,5 C 5,0 C 4,4 C 78 % 1014,3 hPa 0,0 l/m 0 min 0 min 34 W/m 12,9 km/h (3 Bft) 100,00 %
19.11.2018 15:40 5,5 C 5,0 C 4,4 C 79 % 1014,3 hPa 0,0 l/m 0 min 0 min 33 W/m 16,1 km/h (3 Bft) 95,74 %
19.11.2018 15:42 5,5 C 5,0 C 4,4 C 78 % 1014,4 hPa 0,0 l/m 0 min 0 min 31 W/m 25,7 km/h (4 Bft) 97,83 %
19.11.2018 15:44 5,5 C 5,0 C 4,4 C 78 % 1014,3 hPa 0,0 l/m 0 min 0 min 30 W/m 22,5 km/h (4 Bft) 97,87 %
19.11.2018 15:46 5,5 C 5,0 C 4,4 C 79 % 1014,3 hPa 0,0 l/m 0 min 0 min 26 W/m 19,3 km/h (3 Bft) 97,87 %
19.11.2018 15:48 5,4 C 5,0 C 4,4 C 78 % 1014,3 hPa 0,0 l/m 0 min 0 min 20 W/m 19,3 km/h (3 Bft) 97,87 %
19.11.2018 15:50 5,4 C 5,0 C 4,4 C 78 % 1014,3 hPa 0,0 l/m 0 min 0 min 15 W/m 38,6 km/h (5 Bft) 97,87 %
19.11.2018 15:52 5,4 C 5,0 C 4,4 C 78 % 1014,3 hPa 0,0 l/m 0 min 0 min 12 W/m 19,3 km/h (3 Bft) 100,00 %
19.11.2018 15:54 5,4 C 5,0 C 4,4 C 78 % 1014,3 hPa 0,0 l/m 0 min 0 min 12 W/m 19,3 km/h (3 Bft) 100,00 %
19.11.2018 15:56 5,4 C 5,0 C 4,4 C 78 % 1014,2 hPa 0,0 l/m 0 min 0 min 11 W/m 29,0 km/h (5 Bft) 100,00 %
19.11.2018 15:58 5,4 C 5,0 C 4,4 C 78 % 1014,2 hPa 0,0 l/m 0 min 0 min 10 W/m 16,1 km/h (3 Bft) 100,00 %
19.11.2018 16:00 5,4 C 5,0 C 4,4 C 78 % 1014,2 hPa 0,0 l/m 0 min 0 min 9 W/m 12,9 km/h (3 Bft) 100,00 %
19.11.2018 16:02 5,4 C 5,0 C 4,4 C 78 % 1014,3 hPa 0,0 l/m 0 min 0 min 8 W/m 12,9 km/h (3 Bft) 100,00 %
19.11.2018 16:04 5,4 C 5,0 C 4,4 C 79 % 1014,2 hPa 0,0 l/m 0 min 0 min 7 W/m 16,1 km/h (3 Bft) 100,00 %
19.11.2018 16:06 5,4 C 5,0 C 4,4 C 79 % 1014,2 hPa 0,0 l/m 0 min 0 min 7 W/m 12,9 km/h (3 Bft) 100,00 %
19.11.2018 16:08 5,4 C 5,0 C 4,4 C 79 % 1014,2 hPa 0,0 l/m 0 min 0 min 7 W/m 9,7 km/h (2 Bft) 100,00 %
19.11.2018 16:10 5,4 C 5,0 C 4,4 C 79 % 1014,3 hPa 0,0 l/m 0 min 0 min 7 W/m 12,9 km/h (3 Bft) 100,00 %
19.11.2018 16:12 5,4 C 5,0 C 4,4 C 79 % 1014,2 hPa 0,0 l/m 0 min 0 min 9 W/m 12,9 km/h (3 Bft) 100,00 %
19.11.2018 16:14 5,4 C 5,0 C 4,4 C 79 % 1014,2 hPa 0,0 l/m 0 min 0 min 11 W/m 19,3 km/h (3 Bft) 100,00 %
19.11.2018 16:16 5,4 C 5,0 C 4,4 C 79 % 1014,2 hPa 0,0 l/m 0 min 0 min 11 W/m 19,3 km/h (3 Bft) 100,00 %
19.11.2018 16:18 5,4 C 5,0 C 4,4 C 79 % 1014,2 hPa 0,0 l/m 0 min 0 min 9 W/m 19,3 km/h (3 Bft) 100,00 %
19.11.2018 16:20 5,4 C 5,0 C 4,4 C 79 % 1014,1 hPa 0,0 l/m 0 min 0 min 7 W/m 19,3 km/h (3 Bft) 100,00 %
19.11.2018 16:22 5,4 C 5,0 C 4,4 C 79 % 1014,2 hPa 0,0 l/m 0 min 0 min 6 W/m 16,1 km/h (3 Bft) 100,00 %
19.11.2018 16:24 5,4 C 5,0 C 4,4 C 79 % 1014,2 hPa 0,0 l/m 0 min 0 min 5 W/m 12,9 km/h (3 Bft) 97,87 %
19.11.2018 16:26 5,4 C 5,0 C 4,4 C 79 % 1014,2 hPa 0,0 l/m 0 min 0 min 5 W/m 16,1 km/h (3 Bft) 100,00 %
19.11.2018 16:28 5,4 C 5,0 C 4,4 C 79 % 1014,1 hPa 0,0 l/m 0 min 0 min 5 W/m 12,9 km/h (3 Bft) 100,00 %
19.11.2018 16:30 5,4 C 5,0 C 4,4 C 79 % 1014,1 hPa 0,0 l/m 0 min 0 min 5 W/m 12,9 km/h (3 Bft) 100,00 %
19.11.2018 16:32 5,3 C 5,0 C 4,4 C 79 % 1014,1 hPa 0,0 l/m 0 min 0 min 0 W/m 12,9 km/h (3 Bft) 100,00 %
19.11.2018 16:34 5,3 C 5,0 C 4,4 C 80 % 1014,2 hPa 0,0 l/m 0 min 0 min 0 W/m 12,9 km/h (3 Bft) 100,00 %
19.11.2018 16:36 5,3 C 4,4 C 4,4 C 79 % 1014,1 hPa 0,0 l/m 0 min 0 min 0 W/m 19,3 km/h (3 Bft) 100,00 %
19.11.2018 16:38 5,3 C 4,4 C 3,9 C 79 % 1014,0 hPa 0,0 l/m 0 min 0 min 0 W/m 12,9 km/h (3 Bft) 94,44 %
19.11.2018 16:40 5,3 C 4,4 C 3,9 C 79 % 1014,1 hPa 0,0 l/m 0 min 0 min 0 W/m 16,1 km/h (3 Bft) 100,00 %
19.11.2018 16:42 5,3 C 4,4 C 3,9 C 79 % 1014,0 hPa 0,0 l/m 0 min 0 min 0 W/m 12,9 km/h (3 Bft) 100,00 %
19.11.2018 16:44 5,3 C 4,4 C 3,9 C 79 % 1013,9 hPa 0,0 l/m 0 min 0 min 0 W/m 16,1 km/h (3 Bft) 100,00 %
19.11.2018 16:46 5,2 C 4,4 C 3,9 C 79 % 1013,9 hPa 0,0 l/m 0 min 0 min 0 W/m 19,3 km/h (3 Bft) 100,00 %
19.11.2018 16:48 5,2 C 4,4 C 3,9 C 79 % 1013,9 hPa 0,0 l/m 0 min 0 min 0 W/m 19,3 km/h (3 Bft) 100,00 %
19.11.2018 16:50 5,2 C 4,4 C 3,9 C 79 % 1013,9 hPa 0,0 l/m 0 min 0 min 0 W/m 22,5 km/h (4 Bft) 100,00 %
19.11.2018 16:52 5,2 C 4,4 C 3,9 C 79 % 1014,1 hPa 0,0 l/m 0 min 0 min 0 W/m 22,5 km/h (4 Bft) 100,00 %
19.11.2018 16:54 5,2 C 4,4 C 3,9 C 79 % 1014,0 hPa 0,0 l/m 0 min 0 min 0 W/m 22,5 km/h (4 Bft) 93,62 %
19.11.2018 16:56 5,2 C 4,4 C 3,9 C 79 % 1014,0 hPa 0,0 l/m 0 min 0 min 0 W/m 16,1 km/h (3 Bft) 100,00 %
19.11.2018 16:58 5,1 C 4,4 C 3,9 C 79 % 1014,0 hPa 0,0 l/m 0 min 0 min 0 W/m 25,7 km/h (4 Bft) 100,00 %
19.11.2018 17:00 5,1 C 4,4 C 3,9 C 79 % 1013,9 hPa 0,0 l/m 0 min 0 min 0 W/m 19,3 km/h (3 Bft) 100,00 %
19.11.2018 17:02 5,1 C 4,4 C 3,9 C 80 % 1014,1 hPa 0,0 l/m 0 min 0 min 0 W/m 25,7 km/h (4 Bft) 100,00 %
19.11.2018 17:04 5,1 C 4,4 C 3,9 C 80 % 1014,3 hPa 0,0 l/m 0 min 0 min 0 W/m 25,7 km/h (4 Bft) 100,00 %
19.11.2018 17:06 5,1 C 3,9 C 3,9 C 81 % 1014,2 hPa 0,0 l/m 0 min 0 min 0 W/m 19,3 km/h (3 Bft) 100,00 %
19.11.2018 17:08 4,9 C 3,9 C 3,9 C 81 % 1014,2 hPa 0,0 l/m 0 min 0 min 0 W/m 25,7 km/h (4 Bft) 100,00 %
19.11.2018 17:10 4,9 C 3,9 C 3,9 C 82 % 1014,2 hPa 0,0 l/m 0 min 0 min 0 W/m 25,7 km/h (4 Bft) 100,00 %
19.11.2018 17:12 4,8 C 3,9 C 3,9 C 82 % 1014,1 hPa 0,0 l/m 0 min 0 min 0 W/m 29,0 km/h (5 Bft) 97,87 %
19.11.2018 17:14 4,7 C 3,3 C 3,3 C 83 % 1014,1 hPa 0,0 l/m 0 min 0 min 0 W/m 19,3 km/h (3 Bft) 100,00 %
19.11.2018 17:16 4,7 C 3,3 C 3,3 C 83 % 1014,1 hPa 0,0 l/m 0 min 0 min 0 W/m 22,5 km/h (4 Bft) 100,00 %
19.11.2018 17:18 4,6 C 3,3 C 3,3 C 83 % 1014,0 hPa 0,0 l/m 0 min 0 min 0 W/m 16,1 km/h (3 Bft) 97,87 %
19.11.2018 17:20 4,5 C 3,3 C 3,3 C 84 % 1014,1 hPa 0,0 l/m 0 min 0 min 0 W/m 22,5 km/h (4 Bft) 95,74 %
19.11.2018 17:22 4,4 C 3,3 C 3,3 C 84 % 1014,1 hPa 0,0 l/m 0 min 0 min 0 W/m 22,5 km/h (4 Bft) 97,87 %
19.11.2018 17:24 4,3 C 3,3 C 3,3 C 84 % 1014,1 hPa 0,0 l/m 0 min 0 min 0 W/m 22,5 km/h (4 Bft) 95,74 %
19.11.2018 17:26 4,3 C 3,3 C 3,3 C 85 % 1014,1 hPa 0,0 l/m 0 min 0 min 0 W/m 19,3 km/h (3 Bft) 95,65 %
19.11.2018 17:28 4,2 C 3,3 C 3,3 C 85 % 1014,0 hPa 0,0 l/m 0 min 0 min 0 W/m 19,3 km/h (3 Bft) 93,62 %
19.11.2018 17:30 4,2 C 3,3 C 3,3 C 85 % 1014,0 hPa 0,0 l/m 0 min 0 min 0 W/m 16,1 km/h (3 Bft) 95,74 %
19.11.2018 17:32 4,1 C 3,3 C 3,3 C 86 % 1013,9 hPa 0,0 l/m 0 min 0 min 0 W/m 16,1 km/h (3 Bft) 93,62 %
19.11.2018 17:34 4,1 C 2,8 C 3,3 C 86 % 1013,9 hPa 0,0 l/m 0 min 0 min 0 W/m 22,5 km/h (4 Bft) 95,74 %
19.11.2018 17:36 4,0 C 2,8 C 3,3 C 86 % 1013,9 hPa 0,0 l/m 0 min 0 min 0 W/m 22,5 km/h (4 Bft) 95,74 %
19.11.2018 17:38 3,9 C 2,8 C 3,3 C 86 % 1013,9 hPa 0,0 l/m 0 min 0 min 0 W/m 25,7 km/h (4 Bft) 95,65 %
19.11.2018 17:40 3,9 C 2,8 C 2,8 C 87 % 1013,9 hPa 0,0 l/m 0 min 0 min 0 W/m 16,1 km/h (3 Bft) 93,62 %
19.11.2018 17:42 3,8 C 2,8 C 2,8 C 87 % 1013,9 hPa 0,0 l/m 0 min 0 min 0 W/m 19,3 km/h (3 Bft) 93,62 %
19.11.2018 17:44 3,8 C 2,8 C 2,8 C 87 % 1013,8 hPa 0,0 l/m 0 min 0 min 0 W/m 19,3 km/h (3 Bft) 95,74 %
19.11.2018 17:46 3,7 C 2,8 C 2,8 C 87 % 1013,8 hPa 0,0 l/m 0 min 0 min 0 W/m 12,9 km/h (3 Bft) 91,49 %
19.11.2018 17:48 3,7 C 2,8 C 2,8 C 88 % 1013,7 hPa 0,0 l/m 0 min 0 min 0 W/m 16,1 km/h (3 Bft) 91,49 %
19.11.2018 17:50 3,7 C 2,8 C 2,8 C 88 % 1013,9 hPa 0,0 l/m 0 min 0 min 0 W/m 16,1 km/h (3 Bft) 93,48 %
19.11.2018 17:52 3,6 C 2,8 C 2,8 C 88 % 1013,6 hPa 0,0 l/m 0 min 0 min 0 W/m 12,9 km/h (3 Bft) 93,62 %
19.11.2018 17:54 3,6 C 2,8 C 2,8 C 88 % 1013,7 hPa 0,0 l/m 0 min 0 min 0 W/m 16,1 km/h (3 Bft) 93,62 %
19.11.2018 17:56 3,5 C 2,8 C 2,8 C 88 % 1013,7 hPa 0,0 l/m 0 min 0 min 0 W/m 12,9 km/h (3 Bft) 91,49 %
19.11.2018 17:58 3,5 C 2,8 C 2,8 C 88 % 1013,6 hPa 0,0 l/m 0 min 0 min 0 W/m 16,1 km/h (3 Bft) 95,74 %
19.11.2018 18:00 3,5 C 2,8 C 2,8 C 89 % 1013,6 hPa 0,0 l/m 0 min 0 min 0 W/m 12,9 km/h (3 Bft) 93,62 %
19.11.2018 18:02 3,4 C 2,8 C 2,8 C 89 % 1013,7 hPa 0,0 l/m 0 min 0 min 0 W/m 19,3 km/h (3 Bft) 93,48 %
19.11.2018 18:04 3,4 C 2,8 C 2,8 C 89 % 1013,6 hPa 0,0 l/m 0 min 0 min 0 W/m 29,0 km/h (5 Bft) 93,62 %
19.11.2018 18:08 3,4 C 2,8 C 2,8 C 89 % 1013,5 hPa 0,0 l/m 0 min 0 min 0 W/m 19,3 km/h (3 Bft) 92,55 %
19.11.2018 18:10 3,4 C 2,8 C 2,2 C 89 % 1013,5 hPa 0,0 l/m 0 min 0 min 0 W/m 12,9 km/h (3 Bft) 93,62 %
19.11.2018 18:12 3,3 C 2,8 C 2,2 C 89 % 1013,5 hPa 0,0 l/m 0 min 0 min 0 W/m 12,9 km/h (3 Bft) 93,62 %
19.11.2018 18:14 3,3 C 2,8 C 2,2 C 89 % 1013,4 hPa 0,0 l/m 0 min 0 min 0 W/m 16,1 km/h (3 Bft) 95,65 %
19.11.2018 18:16 3,3 C 2,8 C 2,2 C 89 % 1013,4 hPa 0,0 l/m 0 min 0 min 0 W/m 12,9 km/h (3 Bft) 95,74 %
19.11.2018 18:18 3,3 C 2,8 C 2,2 C 89 % 1013,4 hPa 0,0 l/m 0 min 0 min 0 W/m 16,1 km/h (3 Bft) 95,74 %
19.11.2018 18:20 3,3 C 2,8 C 2,2 C 89 % 1013,4 hPa 0,0 l/m 0 min 0 min 0 W/m 16,1 km/h (3 Bft) 95,74 %
19.11.2018 18:22 3,2 C 2,8 C 2,2 C 89 % 1013,4 hPa 0,0 l/m 0 min 0 min 0 W/m 12,9 km/h (3 Bft) 93,62 %
19.11.2018 18:24 3,2 C 2,8 C 2,2 C 89 % 1013,4 hPa 0,0 l/m 0 min 0 min 0 W/m 16,1 km/h (3 Bft) 93,48 %
19.11.2018 18:26 3,2 C 2,8 C 2,2 C 89 % 1013,3 hPa 0,0 l/m 0 min 0 min 0 W/m 19,3 km/h (3 Bft) 95,74 %
19.11.2018 18:28 3,2 C 2,8 C 2,2 C 89 % 1013,3 hPa 0,0 l/m 0 min 0 min 0 W/m 9,7 km/h (2 Bft) 95,74 %
19.11.2018 18:30 3,2 C 2,2 C 2,2 C 89 % 1013,3 hPa 0,0 l/m 0 min 0 min 0 W/m 19,3 km/h (3 Bft) 97,87 %
19.11.2018 18:32 3,2 C 2,8 C 2,2 C 89 % 1013,3 hPa 0,0 l/m 0 min 0 min 0 W/m 25,7 km/h (4 Bft) 97,87 %
19.11.2018 18:34 3,2 C 2,8 C 2,2 C 89 % 1013,4 hPa 0,0 l/m 0 min 0 min 0 W/m 12,9 km/h (3 Bft) 97,87 %
19.11.2018 18:36 3,2 C 2,8 C 2,2 C 88 % 1013,4 hPa 0,0 l/m 0 min 0 min 0 W/m 16,1 km/h (3 Bft) 97,83 %
19.11.2018 18:38 3,1 C 2,8 C 2,2 C 89 % 1013,4 hPa 0,0 l/m 0 min 0 min 0 W/m 19,3 km/h (3 Bft) 100,00 %
19.11.2018 18:40 3,1 C 2,8 C 2,2 C 88 % 1013,3 hPa 0,0 l/m 0 min 0 min 0 W/m 16,1 km/h (3 Bft) 97,87 %
19.11.2018 18:42 3,1 C 2,8 C 2,2 C 88 % 1013,2 hPa 0,0 l/m 0 min 0 min 0 W/m 12,9 km/h (3 Bft) 97,87 %
19.11.2018 18:44 3,1 C 2,8 C 2,2 C 88 % 1013,1 hPa 0,0 l/m 0 min 0 min 0 W/m 16,1 km/h (3 Bft) 100,00 %
19.11.2018 18:46 3,1 C 2,8 C 2,2 C 88 % 1013,1 hPa 0,0 l/m 0 min 0 min 0 W/m 22,5 km/h (4 Bft) 100,00 %
19.11.2018 18:48 3,1 C 2,8 C 2,2 C 88 % 1013,2 hPa 0,0 l/m 0 min 0 min 0 W/m 22,5 km/h (4 Bft) 100,00 %
19.11.2018 18:50 3,1 C 2,8 C 2,2 C 88 % 1013,1 hPa 0,0 l/m 0 min 0 min 0 W/m 16,1 km/h (3 Bft) 97,87 %
19.11.2018 18:52 3,1 C 2,8 C 2,2 C 88 % 1013,1 hPa 0,0 l/m 0 min 0 min 0 W/m 25,7 km/h (4 Bft) 97,87 %
19.11.2018 18:54 3,1 C 2,8 C 2,2 C 88 % 1013,0 hPa 0,0 l/m 0 min 0 min 0 W/m 16,1 km/h (3 Bft) 100,00 %
19.11.2018 18:56 3,1 C 2,8 C 2,2 C 88 % 1013,0 hPa 0,0 l/m 0 min 0 min 0 W/m 25,7 km/h (4 Bft) 100,00 %
19.11.2018 18:58 3,1 C 2,8 C 2,2 C 88 % 1013,0 hPa 0,0 l/m 0 min 0 min 0 W/m 12,9 km/h (3 Bft) 93,62 %
19.11.2018 19:00 3,1 C 2,8 C 2,2 C 88 % 1013,1 hPa 0,0 l/m 0 min 0 min 0 W/m 19,3 km/h (3 Bft) 97,83 %
19.11.2018 19:02 3,1 C 2,8 C 2,2 C 88 % 1013,0 hPa 0,0 l/m 0 min 0 min 0 W/m 12,9 km/h (3 Bft) 97,87 %
19.11.2018 19:04 3,1 C 2,8 C 2,2 C 88 % 1013,0 hPa 0,0 l/m 0 min 0 min 0 W/m 22,5 km/h (4 Bft) 100,00 %
19.11.2018 19:06 3,1 C 2,8 C 2,2 C 88 % 1013,0 hPa 0,0 l/m 0 min 0 min 0 W/m 19,3 km/h (3 Bft) 100,00 %
19.11.2018 19:08 3,1 C 2,8 C 2,2 C 88 % 1013,1 hPa 0,0 l/m 0 min 0 min 0 W/m 19,3 km/h (3 Bft) 100,00 %
19.11.2018 19:10 3,1 C 2,8 C 2,2 C 88 % 1013,0 hPa 0,0 l/m 0 min 0 min 0 W/m 19,3 km/h (3 Bft) 97,87 %
19.11.2018 19:12 3,1 C 2,8 C 2,2 C 88 % 1013,1 hPa 0,0 l/m 0 min 0 min 0 W/m 25,7 km/h (4 Bft) 100,00 %
19.11.2018 19:14 3,1 C 2,8 C 2,2 C 88 % 1012,9 hPa 0,0 l/m 0 min 0 min 0 W/m 16,1 km/h (3 Bft) 100,00 %
19.11.2018 19:16 3,1 C 2,8 C 2,2 C 87 % 1013,0 hPa 0,0 l/m 0 min 0 min 0 W/m 16,1 km/h (3 Bft) 100,00 %
19.11.2018 19:18 3,1 C 2,8 C 2,2 C 87 % 1013,0 hPa 0,0 l/m 0 min 0 min 0 W/m 22,5 km/h (4 Bft) 100,00 %
19.11.2018 19:20 3,1 C 2,8 C 2,2 C 87 % 1013,0 hPa 0,0 l/m 0 min 0 min 0 W/m 12,9 km/h (3 Bft) 97,87 %
19.11.2018 19:22 3,2 C 2,8 C 2,2 C 87 % 1013,0 hPa 0,0 l/m 0 min 0 min 0 W/m 19,3 km/h (3 Bft) 100,00 %
19.11.2018 19:24 3,1 C 2,8 C 2,2 C 87 % 1012,9 hPa 0,0 l/m 0 min 0 min 0 W/m 22,5 km/h (4 Bft) 100,00 %
19.11.2018 19:26 3,1 C 2,8 C 2,2 C 87 % 1013,0 hPa 0,0 l/m 0 min 0 min 0 W/m 22,5 km/h (4 Bft) 97,87 %
19.11.2018 19:28 3,1 C 2,8 C 2,2 C 87 % 1012,9 hPa 0,0 l/m 0 min 0 min 0 W/m 22,5 km/h (4 Bft) 100,00 %
19.11.2018 19:30 3,2 C 2,8 C 2,2 C 87 % 1012,9 hPa 0,0 l/m 0 min 0 min 0 W/m 16,1 km/h (3 Bft) 100,00 %
19.11.2018 19:32 3,1 C 2,8 C 2,2 C 86 % 1012,9 hPa 0,0 l/m 0 min 0 min 0 W/m 25,7 km/h (4 Bft) 100,00 %
19.11.2018 19:34 3,1 C 2,8 C 2,2 C 86 % 1012,9 hPa 0,0 l/m 0 min 0 min 0 W/m 19,3 km/h (3 Bft) 100,00 %
19.11.2018 19:36 3,1 C 2,8 C 2,2 C 86 % 1012,9 hPa 0,0 l/m 0 min 0 min 0 W/m 22,5 km/h (4 Bft) 100,00 %
19.11.2018 19:38 3,1 C 2,8 C 2,2 C 86 % 1012,9 hPa 0,0 l/m 0 min 0 min 0 W/m 19,3 km/h (3 Bft) 100,00 %
19.11.2018 19:40 3,1 C 2,8 C 2,2 C 86 % 1012,9 hPa 0,0 l/m 0 min 0 min 0 W/m 16,1 km/h (3 Bft) 100,00 %
19.11.2018 19:42 3,1 C 2,8 C 2,2 C 85 % 1012,8 hPa 0,0 l/m 0 min 0 min 0 W/m 19,3 km/h (3 Bft) 100,00 %
19.11.2018 19:44 3,1 C 2,8 C 2,2 C 85 % 1012,8 hPa 0,0 l/m 0 min 0 min 0 W/m 19,3 km/h (3 Bft) 100,00 %
19.11.2018 19:46 3,1 C 2,8 C 2,2 C 85 % 1012,7 hPa 0,0 l/m 0 min 0 min 0 W/m 19,3 km/h (3 Bft) 100,00 %
19.11.2018 19:48 3,1 C 2,8 C 2,2 C 85 % 1012,7 hPa 0,0 l/m 0 min 0 min 0 W/m 16,1 km/h (3 Bft) 100,00 %
19.11.2018 19:50 3,1 C 2,2 C 2,2 C 85 % 1012,8 hPa 0,0 l/m 0 min 0 min 0 W/m 22,5 km/h (4 Bft) 100,00 %
19.11.2018 19:52 3,1 C 2,8 C 2,2 C 85 % 1012,8 hPa 0,0 l/m 0 min 0 min 0 W/m 29,0 km/h (5 Bft) 100,00 %
19.11.2018 19:54 3,1 C 2,8 C 2,2 C 85 % 1012,9 hPa 0,0 l/m 0 min 0 min 0 W/m 29,0 km/h (5 Bft) 100,00 %
19.11.2018 19:56 3,1 C 2,8 C 2,2 C 85 % 1012,8 hPa 0,0 l/m 0 min 0 min 0 W/m 19,3 km/h (3 Bft) 95,74 %
19.11.2018 19:58 3,1 C 2,8 C 2,2 C 85 % 1012,8 hPa 0,0 l/m 0 min 0 min 0 W/m 12,9 km/h (3 Bft) 95,65 %
19.11.2018 20:00 3,1 C 2,8 C 2,2 C 85 % 1012,8 hPa 0,0 l/m 0 min 0 min 0 W/m 16,1 km/h (3 Bft) 100,00 %
19.11.2018 20:02 3,1 C 2,8 C 2,2 C 85 % 1012,8 hPa 0,0 l/m 0 min 0 min 0 W/m 12,9 km/h (3 Bft) 97,87 %
19.11.2018 20:04 3,1 C 2,8 C 2,2 C 85 % 1012,8 hPa 0,0 l/m 0 min 0 min 0 W/m 19,3 km/h (3 Bft) 97,87 %
19.11.2018 20:06 3,1 C 2,8 C 2,2 C 85 % 1012,8 hPa 0,0 l/m 0 min 0 min 0 W/m 22,5 km/h (4 Bft) 97,87 %
19.11.2018 20:08 3,1 C 2,8 C 2,2 C 85 % 1012,8 hPa 0,0 l/m 0 min 0 min 0 W/m 12,9 km/h (3 Bft) 97,87 %
19.11.2018 20:10 3,2 C 2,8 C 2,2 C 85 % 1012,8 hPa 0,0 l/m 0 min 0 min 0 W/m 19,3 km/h (3 Bft) 100,00 %
19.11.2018 20:12 3,2 C 2,8 C 2,2 C 85 % 1012,7 hPa 0,0 l/m 0 min 0 min 0 W/m 19,3 km/h (3 Bft) 97,87 %
19.11.2018 20:14 3,2 C 2,8 C 2,2 C 85 % 1012,7 hPa 0,0 l/m 0 min 0 min 0 W/m 16,1 km/h (3 Bft) 95,74 %
19.11.2018 20:16 3,2 C 2,8 C 2,2 C 85 % 1012,8 hPa 0,0 l/m 0 min 0 min 0 W/m 22,5 km/h (4 Bft) 97,87 %
19.11.2018 20:18 3,2 C 2,8 C 2,2 C 85 % 1012,8 hPa 0,0 l/m 0 min 0 min 0 W/m 19,3 km/h (3 Bft) 95,74 %
19.11.2018 20:20 3,2 C 2,8 C 2,2 C 85 % 1012,7 hPa 0,0 l/m 0 min 0 min 0 W/m 22,5 km/h (4 Bft) 95,74 %
19.11.2018 20:22 3,2 C 2,8 C 2,2 C 85 % 1012,7 hPa 0,0 l/m 0 min 0 min 0 W/m 22,5 km/h (4 Bft) 95,65 %
19.11.2018 20:24 3,3 C 2,8 C 2,2 C 85 % 1012,7 hPa 0,0 l/m 0 min 0 min 0 W/m 19,3 km/h (3 Bft) 93,62 %
19.11.2018 20:26 3,3 C 2,8 C 2,2 C 85 % 1012,6 hPa 0,0 l/m 0 min 0 min 0 W/m 19,3 km/h (3 Bft) 95,74 %
19.11.2018 20:28 3,3 C 2,8 C 2,2 C 85 % 1012,6 hPa 0,0 l/m 0 min 0 min 0 W/m 19,3 km/h (3 Bft) 95,74 %
19.11.2018 20:30 3,3 C 2,8 C 2,2 C 85 % 1012,6 hPa 0,0 l/m 0 min 0 min 0 W/m 16,1 km/h (3 Bft) 93,62 %
19.11.2018 20:32 3,3 C 2,8 C 2,2 C 85 % 1012,6 hPa 0,0 l/m 0 min 0 min 0 W/m 12,9 km/h (3 Bft) 95,65 %
19.11.2018 20:34 3,4 C 2,8 C 2,2 C 85 % 1012,6 hPa 0,0 l/m 0 min 0 min 0 W/m 19,3 km/h (3 Bft) 95,74 %
19.11.2018 20:36 3,4 C 3,3 C 2,2 C 84 % 1012,6 hPa 0,0 l/m 0 min 0 min 0 W/m 19,3 km/h (3 Bft) 95,74 %
19.11.2018 20:38 3,4 C 3,3 C 2,8 C 84 % 1012,5 hPa 0,0 l/m 0 min 0 min 0 W/m 19,3 km/h (3 Bft) 95,74 %
19.11.2018 20:40 3,4 C 3,3 C 2,8 C 84 % 1012,6 hPa 0,0 l/m 0 min 0 min 0 W/m 19,3 km/h (3 Bft) 95,74 %
19.11.2018 20:42 3,4 C 3,3 C 2,8 C 84 % 1012,6 hPa 0,0 l/m 0 min 0 min 0 W/m 12,9 km/h (3 Bft) 93,62 %
19.11.2018 20:44 3,4 C 3,3 C 2,8 C 84 % 1012,5 hPa 0,0 l/m 0 min 0 min 0 W/m 12,9 km/h (3 Bft) 93,48 %
19.11.2018 20:46 3,4 C 3,3 C 2,8 C 84 % 1012,6 hPa 0,0 l/m 0 min 0 min 0 W/m 16,1 km/h (3 Bft) 95,74 %
19.11.2018 20:48 3,4 C 3,3 C 2,8 C 84 % 1012,6 hPa 0,0 l/m 0 min 0 min 0 W/m 16,1 km/h (3 Bft) 93,62 %
19.11.2018 20:50 3,4 C 3,3 C 2,8 C 84 % 1012,5 hPa 0,0 l/m 0 min 0 min 0 W/m 22,5 km/h (4 Bft) 95,74 %
19.11.2018 20:52 3,5 C 3,3 C 2,8 C 84 % 1012,5 hPa 0,0 l/m 0 min 0 min 0 W/m 16,1 km/h (3 Bft) 95,74 %
19.11.2018 20:54 3,5 C 3,3 C 2,8 C 84 % 1012,6 hPa 0,0 l/m 0 min 0 min 0 W/m 19,3 km/h (3 Bft) 95,74 %
19.11.2018 20:56 3,5 C 3,3 C 2,8 C 84 % 1012,5 hPa 0,0 l/m 0 min 0 min 0 W/m 32,2 km/h (5 Bft) 91,30 %
19.11.2018 20:58 3,5 C 3,3 C 2,8 C 84 % 1012,5 hPa 0,0 l/m 0 min 0 min 0 W/m 22,5 km/h (4 Bft) 97,87 %
19.11.2018 21:00 3,5 C 3,3 C 2,8 C 83 % 1012,5 hPa 0,0 l/m 0 min 0 min 0 W/m 16,1 km/h (3 Bft) 93,62 %
19.11.2018 21:02 3,6 C 3,3 C 2,8 C 83 % 1012,5 hPa 0,0 l/m 0 min 0 min 0 W/m 22,5 km/h (4 Bft) 100,00 %
19.11.2018 21:04 3,6 C 3,3 C 2,8 C 83 % 1012,4 hPa 0,0 l/m 0 min 0 min 0 W/m 22,5 km/h (4 Bft) 100,00 %
19.11.2018 21:06 3,6 C 3,3 C 2,8 C 83 % 1012,5 hPa 0,0 l/m 0 min 0 min 0 W/m 25,7 km/h (4 Bft) 100,00 %
19.11.2018 21:08 3,6 C 3,3 C 2,8 C 83 % 1012,5 hPa 0,0 l/m 0 min 0 min 0 W/m 19,3 km/h (3 Bft) 97,83 %
19.11.2018 21:10 3,6 C 3,3 C 2,8 C 83 % 1012,4 hPa 0,0 l/m 0 min 0 min 0 W/m 19,3 km/h (3 Bft) 97,87 %
19.11.2018 21:12 3,6 C 3,3 C 2,8 C 82 % 1012,4 hPa 0,0 l/m 0 min 0 min 0 W/m 25,7 km/h (4 Bft) 100,00 %
19.11.2018 21:14 3,6 C 3,3 C 2,8 C 82 % 1012,5 hPa 0,0 l/m 0 min 0 min 0 W/m 35,4 km/h (5 Bft) 100,00 %
19.11.2018 21:16 3,6 C 3,3 C 2,8 C 82 % 1012,4 hPa 0,0 l/m 0 min 0 min 0 W/m 22,5 km/h (4 Bft) 97,87 %
19.11.2018 21:18 3,6 C 3,3 C 2,8 C 82 % 1012,5 hPa 0,0 l/m 0 min 0 min 0 W/m 16,1 km/h (3 Bft) 100,00 %
19.11.2018 21:20 3,6 C 3,3 C 2,8 C 82 % 1012,5 hPa 0,0 l/m 0 min 0 min 0 W/m 19,3 km/h (3 Bft) 97,83 %
19.11.2018 21:22 3,6 C 3,3 C 2,8 C 82 % 1012,4 hPa 0,0 l/m 0 min 0 min 0 W/m 29,0 km/h (5 Bft) 100,00 %
19.11.2018 21:24 3,6 C 3,3 C 2,8 C 82 % 1012,4 hPa 0,0 l/m 0 min 0 min 0 W/m 12,9 km/h (3 Bft) 97,87 %
19.11.2018 21:26 3,6 C 3,3 C 2,8 C 82 % 1012,4 hPa 0,0 l/m 0 min 0 min 0 W/m 16,1 km/h (3 Bft) 95,74 %
19.11.2018 21:28 3,6 C 3,3 C 2,8 C 81 % 1012,4 hPa 0,0 l/m 0 min 0 min 0 W/m 19,3 km/h (3 Bft) 93,62 %
19.11.2018 21:30 3,6 C 3,3 C 2,8 C 81 % 1012,4 hPa 0,0 l/m 0 min 0 min 0 W/m 19,3 km/h (3 Bft) 97,83 %
19.11.2018 21:32 3,6 C 3,3 C 2,8 C 81 % 1012,3 hPa 0,0 l/m 0 min 0 min 0 W/m 29,0 km/h (5 Bft) 97,87 %
19.11.2018 21:34 3,6 C 3,3 C 2,8 C 81 % 1012,2 hPa 0,0 l/m 0 min 0 min 0 W/m 19,3 km/h (3 Bft) 97,87 %
19.11.2018 21:36 3,6 C 3,3 C 2,8 C 81 % 1012,5 hPa 0,0 l/m 0 min 0 min 0 W/m 16,1 km/h (3 Bft) 95,74 %
19.11.2018 21:38 3,6 C 3,3 C 2,8 C 81 % 1012,4 hPa 0,0 l/m 0 min 0 min 0 W/m 25,7 km/h (4 Bft) 97,87 %
19.11.2018 21:40 3,6 C 3,3 C 2,8 C 81 % 1012,4 hPa 0,0 l/m 0 min 0 min 0 W/m 16,1 km/h (3 Bft) 97,87 %
19.11.2018 21:42 3,5 C 2,8 C 2,8 C 81 % 1012,4 hPa 0,0 l/m 0 min 0 min 0 W/m 16,1 km/h (3 Bft) 97,83 %
19.11.2018 21:44 3,5 C 2,8 C 2,8 C 81 % 1012,4 hPa 0,0 l/m 0 min 0 min 0 W/m 22,5 km/h (4 Bft) 97,87 %
19.11.2018 21:46 3,5 C 2,8 C 2,8 C 81 % 1012,4 hPa 0,0 l/m 0 min 0 min 0 W/m 16,1 km/h (3 Bft) 97,87 %
19.11.2018 21:48 3,5 C 2,8 C 2,8 C 81 % 1012,5 hPa 0,0 l/m 0 min 0 min 0 W/m 19,3 km/h (3 Bft) 97,87 %
19.11.2018 21:50 3,5 C 2,8 C 2,8 C 81 % 1012,4 hPa 0,0 l/m 0 min 0 min 0 W/m 16,1 km/h (3 Bft) 93,62 %
19.11.2018 21:52 3,5 C 2,8 C 2,8 C 81 % 1012,5 hPa 0,0 l/m 0 min 0 min 0 W/m 19,3 km/h (3 Bft) 97,87 %
19.11.2018 21:54 3,5 C 2,8 C 2,8 C 81 % 1012,5 hPa 0,0 l/m 0 min 0 min 0 W/m 25,7 km/h (4 Bft) 97,83 %
19.11.2018 21:56 3,4 C 2,8 C 2,8 C 81 % 1012,5 hPa 0,0 l/m 0 min 0 min 0 W/m 19,3 km/h (3 Bft) 97,87 %
19.11.2018 21:58 3,4 C 2,8 C 2,8 C 81 % 1012,5 hPa 0,0 l/m 0 min 0 min 0 W/m 12,9 km/h (3 Bft) 97,87 %
19.11.2018 22:00 3,4 C 2,8 C 2,8 C 82 % 1012,5 hPa 0,0 l/m 0 min 0 min 0 W/m 16,1 km/h (3 Bft) 95,74 %
19.11.2018 22:02 3,4 C 2,8 C 2,8 C 82 % 1012,5 hPa 0,0 l/m 0 min 0 min 0 W/m 22,5 km/h (4 Bft) 97,87 %
19.11.2018 22:04 3,4 C 3,3 C 2,8 C 82 % 1012,4 hPa 0,0 l/m 0 min 0 min 0 W/m 22,5 km/h (4 Bft) 97,87 %
19.11.2018 22:06 3,4 C 3,3 C 2,8 C 82 % 1012,4 hPa 0,0 l/m 0 min 0 min 0 W/m 16,1 km/h (3 Bft) 95,65 %
19.11.2018 22:08 3,5 C 3,3 C 2,8 C 82 % 1012,4 hPa 0,0 l/m 0 min 0 min 0 W/m 19,3 km/h (3 Bft) 97,87 %
19.11.2018 22:10 3,5 C 2,8 C 2,8 C 82 % 1012,5 hPa 0,0 l/m 0 min 0 min 0 W/m 12,9 km/h (3 Bft) 97,87 %
19.11.2018 22:12 3,4 C 2,8 C 2,8 C 82 % 1012,5 hPa 0,0 l/m 0 min 0 min 0 W/m 16,1 km/h (3 Bft) 95,74 %
19.11.2018 22:14 3,5 C 2,8 C 2,8 C 82 % 1012,5 hPa 0,0 l/m 0 min 0 min 0 W/m 19,3 km/h (3 Bft) 95,74 %
19.11.2018 22:16 3,5 C 2,8 C 2,8 C 82 % 1012,5 hPa 0,0 l/m 0 min 0 min 0 W/m 16,1 km/h (3 Bft) 97,87 %
19.11.2018 22:18 3,5 C 2,8 C 2,8 C 82 % 1012,5 hPa 0,0 l/m 0 min 0 min 0 W/m 16,1 km/h (3 Bft) 97,83 %
19.11.2018 22:20 3,5 C 2,8 C 2,8 C 82 % 1012,4 hPa 0,0 l/m 0 min 0 min 0 W/m 19,3 km/h (3 Bft) 95,74 %
19.11.2018 22:22 3,5 C 2,8 C 2,8 C 82 % 1012,3 hPa 0,0 l/m 0 min 0 min 0 W/m 16,1 km/h (3 Bft) 97,87 %
19.11.2018 22:24 3,5 C 2,8 C 2,8 C 82 % 1012,3 hPa 0,0 l/m 0 min 0 min 0 W/m 19,3 km/h (3 Bft) 100,00 %
19.11.2018 22:26 3,5 C 3,3 C 2,8 C 82 % 1012,4 hPa 0,0 l/m 0 min 0 min 0 W/m 16,1 km/h (3 Bft) 97,87 %
19.11.2018 22:28 3,5 C 3,3 C 2,8 C 83 % 1012,4 hPa 0,0 l/m 0 min 0 min 0 W/m 16,1 km/h (3 Bft) 100,00 %
19.11.2018 22:30 3,5 C 3,3 C 2,8 C 83 % 1012,4 hPa 0,0 l/m 0 min 0 min 0 W/m 16,1 km/h (3 Bft) 100,00 %
19.11.2018 22:32 3,5 C 3,3 C 2,8 C 83 % 1012,3 hPa 0,0 l/m 0 min 0 min 0 W/m 29,0 km/h (5 Bft) 100,00 %
19.11.2018 22:34 3,5 C 3,3 C 2,8 C 83 % 1012,3 hPa 0,0 l/m 0 min 0 min 0 W/m 29,0 km/h (5 Bft) 95,74 %
19.11.2018 22:36 3,5 C 3,3 C 2,8 C 83 % 1012,2 hPa 0,0 l/m 0 min 0 min 0 W/m 16,1 km/h (3 Bft) 100,00 %
19.11.2018 22:38 3,5 C 3,3 C 2,8 C 83 % 1012,2 hPa 0,0 l/m 0 min 0 min 0 W/m 19,3 km/h (3 Bft) 100,00 %
19.11.2018 22:40 3,5 C 2,8 C 2,8 C 83 % 1012,2 hPa 0,0 l/m 0 min 0 min 0 W/m 16,1 km/h (3 Bft) 100,00 %
19.11.2018 22:42 3,5 C 2,8 C 2,8 C 83 % 1012,2 hPa 0,0 l/m 0 min 0 min 0 W/m 19,3 km/h (3 Bft) 95,65 %
19.11.2018 22:44 3,5 C 2,8 C 2,8 C 83 % 1012,1 hPa 0,0 l/m 0 min 0 min 0 W/m 12,9 km/h (3 Bft) 95,74 %
19.11.2018 22:46 3,5 C 2,8 C 2,8 C 83 % 1012,1 hPa 0,0 l/m 0 min 0 min 0 W/m 19,3 km/h (3 Bft) 97,87 %
19.11.2018 22:48 3,5 C 2,8 C 2,8 C 83 % 1012,1 hPa 0,0 l/m 0 min 0 min 0 W/m 16,1 km/h (3 Bft) 100,00 %
19.11.2018 22:50 3,5 C 2,8 C 2,8 C 83 % 1012,0 hPa 0,0 l/m 0 min 0 min 0 W/m 16,1 km/h (3 Bft) 100,00 %
19.11.2018 22:52 3,5 C 2,8 C 2,8 C 83 % 1012,0 hPa 0,0 l/m 0 min 0 min 0 W/m 16,1 km/h (3 Bft) 97,83 %
19.11.2018 22:54 3,5 C 2,8 C 2,8 C 83 % 1012,0 hPa 0,0 l/m 0 min 0 min 0 W/m 22,5 km/h (4 Bft) 97,87 %
19.11.2018 22:56 3,5 C 2,8 C 2,8 C 83 % 1012,1 hPa 0,0 l/m 0 min 0 min 0 W/m 19,3 km/h (3 Bft) 95,74 %
19.11.2018 22:58 3,5 C 2,8 C 2,8 C 83 % 1012,0 hPa 0,0 l/m 0 min 0 min 0 W/m 9,7 km/h (2 Bft) 95,74 %
19.11.2018 23:00 3,5 C 2,8 C 2,8 C 83 % 1011,9 hPa 0,0 l/m 0 min 0 min 0 W/m 12,9 km/h (3 Bft) 93,62 %
19.11.2018 23:02 3,5 C 2,8 C 2,8 C 83 % 1012,0 hPa 0,0 l/m 0 min 0 min 0 W/m 12,9 km/h (3 Bft) 95,74 %
19.11.2018 23:04 3,5 C 2,8 C 2,8 C 83 % 1012,0 hPa 0,0 l/m 0 min 0 min 0 W/m 22,5 km/h (4 Bft) 95,65 %
19.11.2018 23:06 3,5 C 2,8 C 2,8 C 83 % 1012,0 hPa 0,0 l/m 0 min 0 min 0 W/m 12,9 km/h (3 Bft) 97,87 %
19.11.2018 23:08 3,5 C 2,8 C 2,8 C 83 % 1012,0 hPa 0,0 l/m 0 min 0 min 0 W/m 22,5 km/h (4 Bft) 96,23 %
19.11.2018 23:10 3,5 C 2,8 C 2,8 C 83 % 1011,9 hPa 0,0 l/m 0 min 0 min 0 W/m 16,1 km/h (3 Bft) 95,12 %
19.11.2018 23:12 3,4 C 2,8 C 2,2 C 83 % 1011,9 hPa 0,0 l/m 0 min 0 min 0 W/m 16,1 km/h (3 Bft) 93,62 %
19.11.2018 23:14 3,4 C 2,8 C 2,2 C 83 % 1011,9 hPa 0,0 l/m 0 min 0 min 0 W/m 19,3 km/h (3 Bft) 95,74 %
19.11.2018 23:16 3,4 C 2,8 C 2,2 C 83 % 1011,9 hPa 0,0 l/m 0 min 0 min 0 W/m 12,9 km/h (3 Bft) 95,65 %
19.11.2018 23:18 3,4 C 2,8 C 2,2 C 83 % 1011,9 hPa 0,0 l/m 0 min 0 min 0 W/m 16,1 km/h (3 Bft) 93,62 %
19.11.2018 23:20 3,4 C 2,8 C 2,2 C 83 % 1011,9 hPa 0,0 l/m 0 min 0 min 0 W/m 25,7 km/h (4 Bft) 93,62 %
19.11.2018 23:22 3,3 C 2,8 C 2,2 C 83 % 1011,9 hPa 0,0 l/m 0 min 0 min 0 W/m 16,1 km/h (3 Bft) 95,74 %
19.11.2018 23:24 3,3 C 2,8 C 2,2 C 83 % 1011,8 hPa 0,0 l/m 0 min 0 min 0 W/m 16,1 km/h (3 Bft) 95,74 %
19.11.2018 23:26 3,3 C 2,8 C 2,2 C 83 % 1011,9 hPa 0,0 l/m 0 min 0 min 0 W/m 19,3 km/h (3 Bft) 95,74 %
19.11.2018 23:28 3,3 C 2,2 C 2,2 C 83 % 1011,9 hPa 0,0 l/m 0 min 0 min 0 W/m 16,1 km/h (3 Bft) 93,48 %
19.11.2018 23:30 3,2 C 2,2 C 2,2 C 83 % 1011,8 hPa 0,0 l/m 0 min 0 min 0 W/m 22,5 km/h (4 Bft) 95,74 %
19.11.2018 23:32 3,2 C 2,2 C 2,2 C 83 % 1011,7 hPa 0,0 l/m 0 min 0 min 0 W/m 12,9 km/h (3 Bft) 95,74 %
19.11.2018 23:34 3,2 C 2,2 C 2,2 C 83 % 1011,7 hPa 0,0 l/m 0 min 0 min 0 W/m 16,1 km/h (3 Bft) 95,74 %
19.11.2018 23:36 3,1 C 2,2 C 1,7 C 83 % 1011,7 hPa 0,0 l/m 0 min 0 min 0 W/m 12,9 km/h (3 Bft) 93,62 %
19.11.2018 23:38 3,1 C 2,2 C 1,7 C 84 % 1011,8 hPa 0,0 l/m 0 min 0 min 0 W/m 25,7 km/h (4 Bft) 98,08 %
19.11.2018 23:40 3,1 C 2,2 C 1,7 C 83 % 1011,6 hPa 0,0 l/m 0 min 0 min 0 W/m 16,1 km/h (3 Bft) 97,56 %
19.11.2018 23:42 3,0 C 2,2 C 1,7 C 83 % 1011,6 hPa 0,0 l/m 0 min 0 min 0 W/m 16,1 km/h (3 Bft) 91,49 %
19.11.2018 23:44 3,0 C 2,2 C 1,7 C 83 % 1011,6 hPa 0,0 l/m 0 min 0 min 0 W/m 12,9 km/h (3 Bft) 100,00 %
19.11.2018 23:46 2,9 C 2,2 C 1,7 C 84 % 1011,5 hPa 0,0 l/m 0 min 0 min 0 W/m 19,3 km/h (3 Bft) 100,00 %
19.11.2018 23:48 2,9 C 2,2 C 1,7 C 84 % 1011,5 hPa 0,0 l/m 0 min 0 min 0 W/m 16,1 km/h (3 Bft) 100,00 %
19.11.2018 23:50 2,9 C 2,2 C 1,7 C 84 % 1011,5 hPa 0,0 l/m 0 min 0 min 0 W/m 12,9 km/h (3 Bft) 100,00 %
19.11.2018 23:52 2,8 C 2,2 C 1,7 C 84 % 1011,6 hPa 0,0 l/m 0 min 0 min 0 W/m 12,9 km/h (3 Bft) 100,00 %
19.11.2018 23:54 2,8 C 2,2 C 1,7 C 84 % 1011,6 hPa 0,0 l/m 0 min 0 min 0 W/m 12,9 km/h (3 Bft) 97,87 %
19.11.2018 23:56 2,8 C 1,7 C 1,7 C 84 % 1011,6 hPa 0,0 l/m 0 min 0 min 0 W/m 16,1 km/h (3 Bft) 97,87 %
19.11.2018 23:58 2,7 C 1,7 C 1,7 C 84 % 1011,6 hPa 0,0 l/m 0 min 0 min 0 W/m 12,9 km/h (3 Bft) 100,00 %
_ Min-Zeit 01:32 01:24 00:42 14:30 23:46 - - - - 01:28 14:26
Minimum _ 0,8 C -0,6 C -0,6 C 76 % 1011,5 hPa - - - - 0,0 km/h (0 Bft) 88,57 %
_ Max-Zeit 12:42 12:40 12:38 04:40 00:00 00:00 12:08 12:08 12:22 09:18 00:56
Maximum _ 7,7 C 13,3 C 7,2 C 95 % 1023,2 hPa 0,0 l/m 4 min 4 min 470 W/m 41,8 km/h
W-NW (6 Bft)
100,00 %
Durchschnitt _ 4,0 C 3,9 C 2,9 C 86 % 1016,8 hPa #0,0 l/m #1:34 h #32 min. 95 W/m 15,2 km/h (3 Bft) 97,47 %
© 2018 W. Hausmann